Time,TemperatureF,DewpointF,PressureIn,WindDirection,WindDirectionDegrees,WindSpeedMPH,WindSpeedGustMPH,Humidity,HourlyPrecipIn,Conditions,Clouds,dailyrainin,SoftwareType,DateUTC
2013-09-24 00:01:00,47.5,40.6,29.35,East,90,0.0,1.3,77,0.00,,---,0.00,VWS V13.01,2013-09-24 04:01:00,
2013-09-24 00:02:00,47.5,40.6,29.35,East,90,0.0,0.0,77,0.00,,---,0.00,VWS V13.01,2013-09-24 04:02:00,
2013-09-24 00:03:00,47.5,40.6,29.35,East,90,0.0,0.0,77,0.00,,---,0.00,VWS V13.01,2013-09-24 04:03:00,
2013-09-24 00:05:00,47.5,40.6,29.35,East,90,0.0,0.0,77,0.00,,---,0.00,VWS V13.01,2013-09-24 04:05:00,
2013-09-24 00:07:00,47.5,40.6,29.35,NNE,22,0.0,0.0,77,0.00,,---,0.00,VWS V13.01,2013-09-24 04:07:00,
2013-09-24 00:09:00,47.5,40.6,29.35,NNE,22,0.0,0.0,77,0.00,,---,0.00,VWS V13.01,2013-09-24 04:09:00,
2013-09-24 00:12:00,47.5,40.6,29.35,West,270,0.0,0.0,77,0.00,,---,0.00,VWS V13.01,2013-09-24 04:12:00,
2013-09-24 00:13:00,47.5,40.6,29.35,North,0,0.0,0.0,77,0.00,,---,0.00,VWS V13.01,2013-09-24 04:13:00,
2013-09-24 00:15:00,47.5,40.6,29.35,East,90,0.0,1.3,77,0.00,,---,0.00,VWS V13.01,2013-09-24 04:15:00,
2013-09-24 00:17:00,47.5,40.6,29.35,NNW,338,0.0,0.0,77,0.00,,---,0.00,VWS V13.01,2013-09-24 04:17:00,
2013-09-24 00:18:00,47.5,40.6,29.35,NE,45,0.0,0.0,77,0.00,,---,0.00,VWS V13.01,2013-09-24 04:18:00,
2013-09-24 00:19:00,47.5,40.6,29.35,NE,45,0.0,0.0,77,0.00,,---,0.00,VWS V13.01,2013-09-24 04:19:00,
2013-09-24 00:23:00,47.5,40.6,29.35,SW,225,0.0,0.0,77,0.00,,---,0.00,VWS V13.01,2013-09-24 04:23:00,
2013-09-24 00:25:00,47.5,40.6,29.35,WSW,248,0.0,0.0,77,0.00,,---,0.00,VWS V13.01,2013-09-24 04:25:00,
2013-09-24 00:27:00,47.8,40.3,29.35,WSW,248,0.0,0.0,75,0.00,,---,0.00,VWS V13.01,2013-09-24 04:27:00,
2013-09-24 00:31:00,47.8,40.3,29.35,WSW,248,0.0,0.0,75,0.00,,---,0.00,VWS V13.01,2013-09-24 04:31:00,
2013-09-24 00:32:00,47.8,40.3,29.35,WSW,248,0.0,0.0,75,0.00,,---,0.00,VWS V13.01,2013-09-24 04:32:00,
2013-09-24 00:33:00,47.8,40.3,29.35,WSW,248,0.0,0.0,75,0.00,,---,0.00,VWS V13.01,2013-09-24 04:33:00,
2013-09-24 00:38:00,47.8,40.3,29.35,SW,225,0.0,0.0,75,0.00,,---,0.00,VWS V13.01,2013-09-24 04:38:00,
2013-09-24 00:39:00,47.8,40.3,29.35,SW,225,0.0,0.0,75,0.00,,---,0.00,VWS V13.01,2013-09-24 04:39:00,
2013-09-24 00:43:00,47.8,40.3,29.35,SW,225,0.0,0.0,75,0.00,,---,0.00,VWS V13.01,2013-09-24 04:43:00,
2013-09-24 00:44:00,47.8,40.3,29.35,SW,225,0.0,0.0,75,0.00,,---,0.00,VWS V13.01,2013-09-24 04:44:00,
2013-09-24 00:45:00,47.8,40.3,29.35,SW,225,0.0,0.0,75,0.00,,---,0.00,VWS V13.01,2013-09-24 04:45:00,
2013-09-24 00:48:00,47.7,40.1,29.35,South,180,0.0,1.6,75,0.00,,---,0.00,VWS V13.01,2013-09-24 04:48:00,
2013-09-24 00:50:00,47.5,40.0,29.35,East,90,0.0,0.0,75,0.00,,---,0.00,VWS V13.01,2013-09-24 04:50:00,
2013-09-24 00:51:00,47.5,40.0,29.35,East,90,0.0,0.0,75,0.00,,---,0.00,VWS V13.01,2013-09-24 04:51:00,
2013-09-24 00:53:00,47.5,40.0,29.35,SE,135,0.0,0.0,75,0.00,,---,0.00,VWS V13.01,2013-09-24 04:53:00,
2013-09-24 00:56:00,47.5,40.0,29.35,East,90,1.3,1.3,75,0.00,,---,0.00,VWS V13.01,2013-09-24 04:56:00,
2013-09-24 00:58:00,47.5,40.0,29.35,SW,225,0.0,0.0,75,0.00,,---,0.00,VWS V13.01,2013-09-24 04:58:00,
2013-09-24 01:02:00,47.5,40.0,29.35,SW,225,0.0,0.0,75,0.00,,---,0.00,VWS V13.01,2013-09-24 05:02:00,
2013-09-24 01:03:00,47.5,40.0,29.35,SW,225,0.0,0.0,75,0.00,,---,0.00,VWS V13.01,2013-09-24 05:03:00,
2013-09-24 01:04:00,47.5,40.0,29.35,SSE,158,0.0,0.0,75,0.00,,---,0.00,VWS V13.01,2013-09-24 05:04:00,
2013-09-24 01:08:00,47.3,39.8,29.35,South,180,0.0,0.0,75,0.00,,---,0.00,VWS V13.01,2013-09-24 05:08:00,
2013-09-24 01:09:00,47.3,39.8,29.35,South,180,0.0,0.0,75,0.00,,---,0.00,VWS V13.01,2013-09-24 05:09:00,
2013-09-24 01:10:00,47.3,39.8,29.35,South,180,0.0,0.0,75,0.00,,---,0.00,VWS V13.01,2013-09-24 05:10:00,
2013-09-24 01:13:00,47.3,39.8,29.35,East,90,1.1,1.1,75,0.00,,---,0.00,VWS V13.01,2013-09-24 05:13:00,
2013-09-24 01:14:00,47.3,39.5,29.35,East,90,0.0,1.1,74,0.00,,---,0.00,VWS V13.01,2013-09-24 05:14:00,
2013-09-24 01:15:00,47.3,39.5,29.35,East,90,0.0,0.0,74,0.00,,---,0.00,VWS V13.01,2013-09-24 05:15:00,
2013-09-24 01:16:00,47.3,39.5,29.35,East,90,0.0,0.0,74,0.00,,---,0.00,VWS V13.01,2013-09-24 05:16:00,
2013-09-24 01:18:00,47.3,39.5,29.35,ESE,112,0.0,0.0,74,0.00,,---,0.00,VWS V13.01,2013-09-24 05:18:00,
2013-09-24 01:19:00,47.3,39.5,29.35,East,90,0.0,0.0,74,0.00,,---,0.00,VWS V13.01,2013-09-24 05:19:00,
2013-09-24 01:22:00,47.3,39.5,29.35,East,90,0.0,0.0,74,0.00,,---,0.00,VWS V13.01,2013-09-24 05:22:00,
2013-09-24 01:23:00,47.3,39.5,29.35,East,90,0.0,0.0,74,0.00,,---,0.00,VWS V13.01,2013-09-24 05:23:00,
2013-09-24 01:24:00,47.3,39.5,29.35,East,90,0.0,0.0,74,0.00,,---,0.00,VWS V13.01,2013-09-24 05:24:00,
2013-09-24 01:25:00,47.3,39.5,29.35,East,90,0.0,0.0,74,0.00,,---,0.00,VWS V13.01,2013-09-24 05:25:00,
2013-09-24 01:28:00,47.1,39.3,29.35,East,90,0.0,0.0,74,0.00,,---,0.00,VWS V13.01,2013-09-24 05:28:00,
2013-09-24 01:30:00,47.1,39.3,29.35,South,180,0.0,0.0,74,0.00,,---,0.00,VWS V13.01,2013-09-24 05:30:00,
2013-09-24 01:34:00,47.1,39.3,29.35,East,90,0.0,0.0,74,0.00,,---,0.00,VWS V13.01,2013-09-24 05:34:00,
2013-09-24 01:35:00,47.1,39.3,29.35,East,90,0.0,0.0,74,0.00,,---,0.00,VWS V13.01,2013-09-24 05:35:00,
2013-09-24 01:36:00,47.1,39.3,29.35,East,90,0.0,0.0,74,0.00,,---,0.00,VWS V13.01,2013-09-24 05:36:00,
2013-09-24 01:37:00,47.1,39.3,29.35,East,90,0.0,0.0,74,0.00,,---,0.00,VWS V13.01,2013-09-24 05:37:00,
2013-09-24 01:42:00,47.1,39.3,29.35,East,90,0.0,0.0,74,0.00,,---,0.00,VWS V13.01,2013-09-24 05:42:00,
2013-09-24 01:44:00,47.1,39.3,29.35,WSW,248,0.0,0.0,74,0.00,,---,0.00,VWS V13.01,2013-09-24 05:44:00,
2013-09-24 01:46:00,46.9,38.8,29.35,WSW,248,0.0,0.0,73,0.00,,---,0.00,VWS V13.01,2013-09-24 05:46:00,
2013-09-24 01:48:00,46.9,39.1,29.35,WSW,248,0.0,0.0,74,0.00,,---,0.00,VWS V13.01,2013-09-24 05:48:00,
2013-09-24 01:49:00,46.9,39.1,29.35,WSW,248,0.0,0.0,74,0.00,,---,0.00,VWS V13.01,2013-09-24 05:49:00,
2013-09-24 01:50:00,46.9,39.1,29.35,East,90,0.0,0.0,74,0.00,,---,0.00,VWS V13.01,2013-09-24 05:50:00,
2013-09-24 01:55:00,46.9,39.1,29.35,East,90,0.0,0.0,74,0.00,,---,0.00,VWS V13.01,2013-09-24 05:55:00,
2013-09-24 01:56:00,46.9,39.1,29.35,North,0,0.0,0.0,74,0.00,,---,0.00,VWS V13.01,2013-09-24 05:56:00,
2013-09-24 01:59:00,46.9,39.1,29.35,NE,45,0.9,0.9,74,0.00,,---,0.00,VWS V13.01,2013-09-24 05:59:00,
2013-09-24 02:01:00,46.9,39.1,29.35,North,0,1.1,1.1,74,0.00,,---,0.00,VWS V13.01,2013-09-24 06:01:00,
2013-09-24 02:02:00,46.9,39.1,29.35,East,90,0.0,1.1,74,0.00,,---,0.00,VWS V13.01,2013-09-24 06:02:00,
2013-09-24 02:05:00,46.9,39.1,29.35,ENE,68,0.0,0.0,74,0.00,,---,0.00,VWS V13.01,2013-09-24 06:05:00,
2013-09-24 02:07:00,46.9,39.1,29.35,East,90,0.9,0.9,74,0.00,,---,0.00,VWS V13.01,2013-09-24 06:07:00,
2013-09-24 02:09:00,46.9,39.1,29.35,NE,45,0.0,0.0,74,0.00,,---,0.00,VWS V13.01,2013-09-24 06:09:00,
2013-09-24 02:10:00,46.6,38.8,29.35,East,90,0.0,0.0,74,0.00,,---,0.00,VWS V13.01,2013-09-24 06:10:00,
2013-09-24 02:12:00,46.6,38.8,29.35,East,90,0.0,0.0,74,0.00,,---,0.00,VWS V13.01,2013-09-24 06:12:00,
2013-09-24 02:14:00,46.6,38.8,29.35,East,90,0.0,0.0,74,0.00,,---,0.00,VWS V13.01,2013-09-24 06:14:00,
2013-09-24 02:17:00,46.6,38.8,29.35,East,90,0.0,0.0,74,0.00,,---,0.00,VWS V13.01,2013-09-24 06:17:00,
2013-09-24 02:18:00,46.6,38.8,29.35,East,90,0.0,0.0,74,0.00,,---,0.00,VWS V13.01,2013-09-24 06:18:00,
2013-09-24 02:19:00,46.6,38.8,29.35,East,90,0.0,0.0,74,0.00,,---,0.00,VWS V13.01,2013-09-24 06:19:00,
2013-09-24 02:20:00,46.6,38.8,29.35,East,90,0.0,0.0,74,0.00,,---,0.00,VWS V13.01,2013-09-24 06:20:00,
2013-09-24 02:22:00,46.6,38.8,29.35,East,90,0.0,0.0,74,0.00,,---,0.00,VWS V13.01,2013-09-24 06:22:00,
2013-09-24 02:24:00,46.6,38.8,29.35,East,90,0.0,0.0,74,0.00,,---,0.00,VWS V13.01,2013-09-24 06:24:00,
2013-09-24 02:26:00,46.6,38.8,29.35,East,90,0.0,0.0,74,0.00,,---,0.00,VWS V13.01,2013-09-24 06:26:00,
2013-09-24 02:28:00,46.6,38.8,29.35,SE,135,0.0,0.0,74,0.00,,---,0.00,VWS V13.01,2013-09-24 06:28:00,
2013-09-24 02:29:00,46.6,38.8,29.35,SE,135,0.0,0.0,74,0.00,,---,0.00,VWS V13.01,2013-09-24 06:29:00,
2013-09-24 02:30:00,46.6,38.8,29.35,SE,135,0.0,0.0,74,0.00,,---,0.00,VWS V13.01,2013-09-24 06:30:00,
2013-09-24 02:32:00,46.6,38.8,29.32,SE,135,0.0,0.0,74,0.00,,---,0.00,VWS V13.01,2013-09-24 06:32:00,
2013-09-24 02:33:00,46.6,38.8,29.32,SE,135,0.0,0.0,74,0.00,,---,0.00,VWS V13.01,2013-09-24 06:33:00,
2013-09-24 02:34:00,46.6,38.8,29.32,SW,225,0.0,0.0,74,0.00,,---,0.00,VWS V13.01,2013-09-24 06:34:00,
2013-09-24 02:35:00,46.6,38.8,29.32,SW,225,0.0,0.0,74,0.00,,---,0.00,VWS V13.01,2013-09-24 06:35:00,
2013-09-24 02:38:00,46.6,38.8,29.32,SW,225,0.0,0.0,74,0.00,,---,0.00,VWS V13.01,2013-09-24 06:38:00,
2013-09-24 02:40:00,46.2,38.4,29.32,SW,225,0.0,0.0,74,0.00,,---,0.00,VWS V13.01,2013-09-24 06:40:00,
2013-09-24 02:43:00,46.2,38.4,29.32,SW,225,0.0,0.0,74,0.00,,---,0.00,VWS V13.01,2013-09-24 06:43:00,
2013-09-24 02:44:00,46.2,38.4,29.32,East,90,0.0,0.0,74,0.00,,---,0.00,VWS V13.01,2013-09-24 06:44:00,
2013-09-24 02:46:00,46.2,38.4,29.32,ESE,112,0.0,0.0,74,0.00,,---,0.00,VWS V13.01,2013-09-24 06:46:00,
2013-09-24 02:47:00,46.2,38.4,29.32,SE,135,0.0,0.0,74,0.00,,---,0.00,VWS V13.01,2013-09-24 06:47:00,
2013-09-24 02:51:00,46.2,38.4,29.32,WSW,248,0.0,0.0,74,0.00,,---,0.00,VWS V13.01,2013-09-24 06:51:00,
2013-09-24 02:53:00,46.2,38.8,29.32,SW,225,0.0,0.0,75,0.00,,---,0.00,VWS V13.01,2013-09-24 06:53:00,
2013-09-24 02:55:00,46.2,38.8,29.32,SW,225,0.0,0.0,75,0.00,,---,0.00,VWS V13.01,2013-09-24 06:55:00,
2013-09-24 02:56:00,46.2,38.8,29.32,SW,225,0.0,0.0,75,0.00,,---,0.00,VWS V13.01,2013-09-24 06:56:00,
2013-09-24 02:57:00,46.2,38.8,29.32,SW,225,0.0,0.0,75,0.00,,---,0.00,VWS V13.01,2013-09-24 06:57:00,
2013-09-24 02:59:00,46.2,38.8,29.32,SW,225,0.0,0.0,75,0.00,,---,0.00,VWS V13.01,2013-09-24 06:59:00,
2013-09-24 03:00:00,46.2,38.8,29.32,SW,225,0.0,0.0,75,0.00,,---,0.00,VWS V13.01,2013-09-24 07:00:00,
2013-09-24 03:03:00,45.9,38.4,29.32,SW,225,0.0,0.0,75,0.00,,---,0.00,VWS V13.01,2013-09-24 07:03:00,
2013-09-24 03:04:00,45.9,38.4,29.32,SW,225,0.0,0.0,75,0.00,,---,0.00,VWS V13.01,2013-09-24 07:04:00,
2013-09-24 03:05:00,45.9,38.4,29.32,SW,225,0.0,0.0,75,0.00,,---,0.00,VWS V13.01,2013-09-24 07:05:00,
2013-09-24 03:07:00,45.9,38.4,29.32,SSW,202,0.0,0.0,75,0.00,,---,0.00,VWS V13.01,2013-09-24 07:07:00,
2013-09-24 03:10:00,45.9,38.4,29.32,SSW,202,0.0,0.0,75,0.00,,---,0.00,VWS V13.01,2013-09-24 07:10:00,
2013-09-24 03:11:00,45.9,38.4,29.32,SSW,202,0.0,0.0,75,0.00,,---,0.00,VWS V13.01,2013-09-24 07:11:00,
2013-09-24 03:13:00,45.9,38.4,29.32,SSW,202,0.0,0.0,75,0.00,,---,0.00,VWS V13.01,2013-09-24 07:13:00,
2013-09-24 03:16:00,45.9,38.4,29.32,SSW,202,0.0,0.0,75,0.00,,---,0.00,VWS V13.01,2013-09-24 07:16:00,
2013-09-24 03:17:00,45.5,38.0,29.32,SSW,202,0.0,0.0,75,0.00,,---,0.00,VWS V13.01,2013-09-24 07:17:00,
2013-09-24 03:19:00,45.5,38.0,29.32,North,0,0.0,0.0,75,0.00,,---,0.00,VWS V13.01,2013-09-24 07:19:00,
2013-09-24 03:23:00,45.5,38.0,29.32,SSW,202,0.0,0.0,75,0.00,,---,0.00,VWS V13.01,2013-09-24 07:23:00,
2013-09-24 03:25:00,45.5,38.0,29.32,SSW,202,0.0,0.0,75,0.00,,---,0.00,VWS V13.01,2013-09-24 07:25:00,
2013-09-24 03:26:00,45.0,37.9,29.32,SSW,202,0.0,0.0,76,0.00,,---,0.00,VWS V13.01,2013-09-24 07:26:00,
2013-09-24 03:28:00,45.0,37.9,29.32,SSW,202,0.0,0.0,76,0.00,,---,0.00,VWS V13.01,2013-09-24 07:28:00,
2013-09-24 03:29:00,45.0,37.9,29.32,SSW,202,0.0,0.0,76,0.00,,---,0.00,VWS V13.01,2013-09-24 07:29:00,
2013-09-24 03:31:00,45.0,37.9,29.32,SSW,202,0.0,0.0,76,0.00,,---,0.00,VWS V13.01,2013-09-24 07:31:00,
2013-09-24 03:33:00,45.0,37.9,29.32,SSW,202,0.0,0.0,76,0.00,,---,0.00,VWS V13.01,2013-09-24 07:33:00,
2013-09-24 03:35:00,45.0,37.9,29.32,East,90,0.0,0.0,76,0.00,,---,0.00,VWS V13.01,2013-09-24 07:35:00,
2013-09-24 03:37:00,45.0,37.9,29.32,East,90,0.0,0.0,76,0.00,,---,0.00,VWS V13.01,2013-09-24 07:37:00,
2013-09-24 03:38:00,45.0,37.9,29.32,East,90,0.0,0.0,76,0.00,,---,0.00,VWS V13.01,2013-09-24 07:38:00,
2013-09-24 03:39:00,45.0,37.9,29.32,East,90,0.0,0.0,76,0.00,,---,0.00,VWS V13.01,2013-09-24 07:39:00,
2013-09-24 03:41:00,45.0,37.9,29.32,South,180,0.0,0.0,76,0.00,,---,0.00,VWS V13.01,2013-09-24 07:41:00,
2013-09-24 03:42:00,44.2,37.5,29.32,South,180,0.0,0.0,77,0.00,,---,0.00,VWS V13.01,2013-09-24 07:42:00,
2013-09-24 03:44:00,44.2,37.5,29.32,South,180,0.0,0.0,77,0.00,,---,0.00,VWS V13.01,2013-09-24 07:44:00,
2013-09-24 03:47:00,44.2,37.5,29.32,South,180,0.0,0.0,77,0.00,,---,0.00,VWS V13.01,2013-09-24 07:47:00,
2013-09-24 03:48:00,44.2,37.5,29.32,South,180,0.0,0.0,77,0.00,,---,0.00,VWS V13.01,2013-09-24 07:48:00,
2013-09-24 03:49:00,44.2,37.5,29.32,South,180,0.0,0.0,77,0.00,,---,0.00,VWS V13.01,2013-09-24 07:49:00,
2013-09-24 03:51:00,44.2,37.5,29.32,South,180,0.0,0.0,77,0.00,,---,0.00,VWS V13.01,2013-09-24 07:51:00,
2013-09-24 03:55:00,44.2,37.5,29.32,South,180,0.0,0.0,77,0.00,,---,0.00,VWS V13.01,2013-09-24 07:55:00,
2013-09-24 03:56:00,44.2,37.5,29.32,South,180,0.0,0.0,77,0.00,,---,0.00,VWS V13.01,2013-09-24 07:56:00,
2013-09-24 03:57:00,44.2,37.5,29.32,South,180,0.0,0.0,77,0.00,,---,0.00,VWS V13.01,2013-09-24 07:57:00,
2013-09-24 04:01:00,44.2,37.5,29.32,South,180,0.0,0.0,77,0.00,,---,0.00,VWS V13.01,2013-09-24 08:01:00,
2013-09-24 04:03:00,44.2,37.5,29.32,South,180,0.0,0.0,77,0.00,,---,0.00,VWS V13.01,2013-09-24 08:03:00,
2013-09-24 04:04:00,44.2,37.5,29.32,South,180,0.0,0.0,77,0.00,,---,0.00,VWS V13.01,2013-09-24 08:04:00,
2013-09-24 04:05:00,44.2,37.5,29.32,South,180,0.0,0.0,77,0.00,,---,0.00,VWS V13.01,2013-09-24 08:05:00,
2013-09-24 04:08:00,44.2,37.5,29.32,South,180,0.0,0.0,77,0.00,,---,0.00,VWS V13.01,2013-09-24 08:08:00,
2013-09-24 04:09:00,44.2,37.5,29.32,South,180,0.0,0.0,77,0.00,,---,0.00,VWS V13.01,2013-09-24 08:09:00,
2013-09-24 04:11:00,44.2,37.5,29.32,South,180,0.0,0.0,77,0.00,,---,0.00,VWS V13.01,2013-09-24 08:11:00,
2013-09-24 04:15:00,44.2,37.5,29.32,South,180,0.0,0.0,77,0.00,,---,0.00,VWS V13.01,2013-09-24 08:15:00,
2013-09-24 04:16:00,43.3,37.0,29.32,South,180,0.0,0.0,78,0.00,,---,0.00,VWS V13.01,2013-09-24 08:16:00,
2013-09-24 04:17:00,43.3,37.0,29.32,South,180,0.0,0.0,78,0.00,,---,0.00,VWS V13.01,2013-09-24 08:17:00,
2013-09-24 04:20:00,43.3,37.3,29.32,South,180,0.0,0.0,79,0.00,,---,0.00,VWS V13.01,2013-09-24 08:20:00,
2013-09-24 04:21:00,43.2,37.1,29.32,South,180,0.0,0.0,79,0.00,,---,0.00,VWS V13.01,2013-09-24 08:21:00,
2013-09-24 04:24:00,43.2,37.1,29.32,South,180,0.0,0.0,79,0.00,,---,0.00,VWS V13.01,2013-09-24 08:24:00,
2013-09-24 04:25:00,43.2,37.1,29.32,South,180,0.0,0.0,79,0.00,,---,0.00,VWS V13.01,2013-09-24 08:25:00,
2013-09-24 04:26:00,43.2,37.1,29.32,South,180,0.0,0.0,79,0.00,,---,0.00,VWS V13.01,2013-09-24 08:26:00,
2013-09-24 04:27:00,43.2,37.1,29.32,South,180,0.0,0.0,79,0.00,,---,0.00,VWS V13.01,2013-09-24 08:27:00,
2013-09-24 04:29:00,43.2,37.1,29.32,South,180,0.0,0.0,79,0.00,,---,0.00,VWS V13.01,2013-09-24 08:29:00,
2013-09-24 04:31:00,43.2,37.1,29.32,South,180,0.0,0.0,79,0.00,,---,0.00,VWS V13.01,2013-09-24 08:31:00,
2013-09-24 04:33:00,43.2,37.1,29.32,South,180,0.0,0.0,79,0.00,,---,0.00,VWS V13.01,2013-09-24 08:33:00,
2013-09-24 04:34:00,43.2,37.1,29.32,South,180,0.0,0.0,79,0.00,,---,0.00,VWS V13.01,2013-09-24 08:34:00,
2013-09-24 04:37:00,43.2,37.1,29.32,South,180,0.0,0.0,79,0.00,,---,0.00,VWS V13.01,2013-09-24 08:37:00,
2013-09-24 04:39:00,43.2,37.1,29.32,South,180,0.0,0.0,79,0.00,,---,0.00,VWS V13.01,2013-09-24 08:39:00,
2013-09-24 04:43:00,43.2,37.1,29.32,South,180,0.0,0.0,79,0.00,,---,0.00,VWS V13.01,2013-09-24 08:43:00,
2013-09-24 04:44:00,43.2,37.1,29.32,South,180,0.0,0.0,79,0.00,,---,0.00,VWS V13.01,2013-09-24 08:44:00,
2013-09-24 04:48:00,43.2,37.1,29.32,South,180,0.0,0.0,79,0.00,,---,0.00,VWS V13.01,2013-09-24 08:48:00,
2013-09-24 04:49:00,43.2,37.1,29.32,South,180,0.0,0.0,79,0.00,,---,0.00,VWS V13.01,2013-09-24 08:49:00,
2013-09-24 04:54:00,42.3,36.5,29.32,South,180,0.0,0.0,80,0.00,,---,0.00,VWS V13.01,2013-09-24 08:54:00,
2013-09-24 04:55:00,42.3,36.5,29.32,South,180,0.0,0.0,80,0.00,,---,0.00,VWS V13.01,2013-09-24 08:55:00,
2013-09-24 04:58:00,42.3,36.5,29.32,South,180,0.0,0.0,80,0.00,,---,0.00,VWS V13.01,2013-09-24 08:58:00,
2013-09-24 04:59:00,42.3,36.5,29.32,South,180,0.0,0.0,80,0.00,,---,0.00,VWS V13.01,2013-09-24 08:59:00,
2013-09-24 05:00:00,42.3,36.5,29.32,South,180,0.0,0.0,80,0.00,,---,0.00,VWS V13.01,2013-09-24 09:00:00,
2013-09-24 05:01:00,42.3,36.5,29.32,South,180,0.0,0.0,80,0.00,,---,0.00,VWS V13.01,2013-09-24 09:01:00,
2013-09-24 05:02:00,42.3,36.5,29.32,South,180,0.0,0.0,80,0.00,,---,0.00,VWS V13.01,2013-09-24 09:02:00,
2013-09-24 05:05:00,42.3,36.5,29.32,South,180,0.0,0.0,80,0.00,,---,0.00,VWS V13.01,2013-09-24 09:05:00,
2013-09-24 05:07:00,42.3,36.5,29.32,South,180,0.0,0.0,80,0.00,,---,0.00,VWS V13.01,2013-09-24 09:07:00,
2013-09-24 05:08:00,42.3,36.5,29.32,South,180,0.0,0.0,80,0.00,,---,0.00,VWS V13.01,2013-09-24 09:08:00,
2013-09-24 05:09:00,42.3,36.5,29.32,South,180,0.0,0.0,80,0.00,,---,0.00,VWS V13.01,2013-09-24 09:09:00,
2013-09-24 05:11:00,42.3,36.5,29.32,South,180,0.0,0.0,80,0.00,,---,0.00,VWS V13.01,2013-09-24 09:11:00,
2013-09-24 05:13:00,42.3,36.5,29.32,South,180,0.0,0.0,80,0.00,,---,0.00,VWS V13.01,2013-09-24 09:13:00,
2013-09-24 05:15:00,42.3,36.5,29.32,SW,225,0.0,0.0,80,0.00,,---,0.00,VWS V13.01,2013-09-24 09:15:00,
2013-09-24 05:17:00,42.3,36.5,29.32,SW,225,0.0,0.0,80,0.00,,---,0.00,VWS V13.01,2013-09-24 09:17:00,
2013-09-24 05:21:00,42.3,36.5,29.32,SE,135,0.0,0.0,80,0.00,,---,0.00,VWS V13.01,2013-09-24 09:21:00,
2013-09-24 05:23:00,42.3,36.5,29.32,East,90,0.0,0.0,80,0.00,,---,0.00,VWS V13.01,2013-09-24 09:23:00,
2013-09-24 05:26:00,42.3,36.5,29.32,SSW,202,0.0,0.0,80,0.00,,---,0.00,VWS V13.01,2013-09-24 09:26:00,
2013-09-24 05:27:00,41.2,35.5,29.32,SW,225,0.0,0.0,80,0.00,,---,0.00,VWS V13.01,2013-09-24 09:27:00,
2013-09-24 05:28:00,41.2,35.5,29.32,SW,225,0.0,0.0,80,0.00,,---,0.00,VWS V13.01,2013-09-24 09:28:00,
2013-09-24 05:29:00,41.2,35.5,29.32,SW,225,0.0,0.0,80,0.00,,---,0.00,VWS V13.01,2013-09-24 09:29:00,
2013-09-24 05:33:00,41.2,35.5,29.32,SE,135,0.0,0.0,80,0.00,,---,0.00,VWS V13.01,2013-09-24 09:33:00,
2013-09-24 05:35:00,41.2,35.5,29.32,SE,135,0.0,0.0,80,0.00,,---,0.00,VWS V13.01,2013-09-24 09:35:00,
2013-09-24 05:37:00,41.2,35.5,29.32,SE,135,0.0,0.0,80,0.00,,---,0.00,VWS V13.01,2013-09-24 09:37:00,
2013-09-24 05:39:00,41.2,35.5,29.32,SE,135,0.0,0.0,80,0.00,,---,0.00,VWS V13.01,2013-09-24 09:39:00,
2013-09-24 05:40:00,41.2,35.5,29.32,SE,135,0.0,0.0,80,0.00,,---,0.00,VWS V13.01,2013-09-24 09:40:00,
2013-09-24 05:43:00,41.2,35.5,29.32,SSW,202,0.0,0.0,80,0.00,,---,0.00,VWS V13.01,2013-09-24 09:43:00,
2013-09-24 05:44:00,41.2,35.5,29.32,SSW,202,0.0,0.0,80,0.00,,---,0.00,VWS V13.01,2013-09-24 09:44:00,
2013-09-24 05:47:00,41.2,35.5,29.32,SSW,202,0.0,0.0,80,0.00,,---,0.00,VWS V13.01,2013-09-24 09:47:00,
2013-09-24 05:49:00,41.0,35.6,29.32,SSW,202,0.0,0.0,81,0.00,,---,0.00,VWS V13.01,2013-09-24 09:49:00,
2013-09-24 05:50:00,41.0,35.6,29.32,SSW,202,0.0,0.0,81,0.00,,---,0.00,VWS V13.01,2013-09-24 09:50:00,
2013-09-24 05:51:00,41.0,35.6,29.32,SW,225,0.0,0.0,81,0.00,,---,0.00,VWS V13.01,2013-09-24 09:51:00,
2013-09-24 05:52:00,41.0,35.6,29.32,SW,225,0.0,0.0,81,0.00,,---,0.00,VWS V13.01,2013-09-24 09:52:00,
2013-09-24 05:53:00,41.0,35.6,29.32,SW,225,0.0,0.0,81,0.00,,---,0.00,VWS V13.01,2013-09-24 09:53:00,
2013-09-24 05:55:00,41.0,35.6,29.32,SW,225,0.0,0.0,81,0.00,,---,0.00,VWS V13.01,2013-09-24 09:55:00,
2013-09-24 05:58:00,41.0,35.6,29.32,SSE,158,0.0,0.0,81,0.00,,---,0.00,VWS V13.01,2013-09-24 09:58:00,
2013-09-24 05:59:00,41.0,35.6,29.32,SE,135,0.0,0.0,81,0.00,,---,0.00,VWS V13.01,2013-09-24 09:59:00,
2013-09-24 06:01:00,41.0,35.6,29.32,SE,135,0.0,0.0,81,0.00,,---,0.00,VWS V13.01,2013-09-24 10:01:00,
2013-09-24 06:02:00,41.0,35.6,29.32,SE,135,0.0,0.0,81,0.00,,---,0.00,VWS V13.01,2013-09-24 10:02:00,
2013-09-24 06:05:00,41.0,35.6,29.32,SE,135,0.0,0.0,81,0.00,,---,0.00,VWS V13.01,2013-09-24 10:05:00,
2013-09-24 06:06:00,41.0,35.6,29.32,South,180,0.0,0.0,81,0.00,,---,0.00,VWS V13.01,2013-09-24 10:06:00,
2013-09-24 06:07:00,41.0,35.6,29.32,SSW,202,0.0,0.0,81,0.00,,---,0.00,VWS V13.01,2013-09-24 10:07:00,
2013-09-24 06:11:00,41.0,35.6,29.32,SSW,202,0.0,0.0,81,0.00,,---,0.00,VWS V13.01,2013-09-24 10:11:00,
2013-09-24 06:12:00,41.0,35.6,29.32,SSW,202,0.0,0.0,81,0.00,,---,0.00,VWS V13.01,2013-09-24 10:12:00,
2013-09-24 06:13:00,41.0,35.6,29.32,SSW,202,0.0,0.0,81,0.00,,---,0.00,VWS V13.01,2013-09-24 10:13:00,
2013-09-24 06:17:00,41.0,35.6,29.32,South,180,0.0,0.0,81,0.00,,---,0.00,VWS V13.01,2013-09-24 10:17:00,
2013-09-24 06:19:00,41.0,35.6,29.32,South,180,0.0,0.0,81,0.00,,---,0.00,VWS V13.01,2013-09-24 10:19:00,
2013-09-24 06:20:00,41.0,35.6,29.32,South,180,0.0,0.0,81,0.00,,---,0.00,VWS V13.01,2013-09-24 10:20:00,
2013-09-24 06:23:00,40.8,35.8,29.32,South,180,0.0,0.0,82,0.00,,---,0.00,VWS V13.01,2013-09-24 10:23:00,
2013-09-24 06:25:00,40.8,35.8,29.32,WSW,248,0.0,0.0,82,0.00,,---,0.00,VWS V13.01,2013-09-24 10:25:00,
2013-09-24 06:27:00,40.8,35.8,29.32,WSW,248,0.0,0.0,82,0.00,,---,0.00,VWS V13.01,2013-09-24 10:27:00,
2013-09-24 06:28:00,40.8,35.8,29.32,WSW,248,0.0,0.0,82,0.00,,---,0.00,VWS V13.01,2013-09-24 10:28:00,
2013-09-24 06:29:00,40.6,35.6,29.32,WSW,248,0.0,0.0,82,0.00,,---,0.00,VWS V13.01,2013-09-24 10:29:00,
2013-09-24 06:30:00,40.6,35.6,29.32,WSW,248,0.0,0.0,82,0.00,,---,0.00,VWS V13.01,2013-09-24 10:30:00,
2013-09-24 06:35:00,40.6,35.6,29.32,WSW,248,0.0,0.0,82,0.00,,---,0.00,VWS V13.01,2013-09-24 10:35:00,
2013-09-24 06:36:00,40.6,35.6,29.32,WSW,248,0.0,0.0,82,0.00,,---,0.00,VWS V13.01,2013-09-24 10:36:00,
2013-09-24 06:37:00,40.6,35.6,29.32,WSW,248,0.0,0.0,82,0.00,,---,0.00,VWS V13.01,2013-09-24 10:37:00,
2013-09-24 06:40:00,40.6,35.6,29.32,WSW,248,0.0,0.0,82,0.00,,---,0.00,VWS V13.01,2013-09-24 10:40:00,
2013-09-24 06:41:00,40.6,35.6,29.32,WSW,248,0.0,0.0,82,0.00,,---,0.00,VWS V13.01,2013-09-24 10:41:00,
2013-09-24 06:44:00,40.3,35.2,29.32,WSW,248,0.0,0.0,82,0.00,,---,0.00,VWS V13.01,2013-09-24 10:44:00,
2013-09-24 06:45:00,40.3,35.2,29.32,WSW,248,0.0,0.0,82,0.00,,---,0.00,VWS V13.01,2013-09-24 10:45:00,
2013-09-24 06:46:00,40.3,35.2,29.32,WSW,248,0.0,0.0,82,0.00,,---,0.00,VWS V13.01,2013-09-24 10:46:00,
2013-09-24 06:50:00,40.3,35.2,29.32,WSW,248,0.0,0.0,82,0.00,,---,0.00,VWS V13.01,2013-09-24 10:50:00,
2013-09-24 06:51:00,40.3,35.2,29.32,WSW,248,0.0,0.0,82,0.00,,---,0.00,VWS V13.01,2013-09-24 10:51:00,
2013-09-24 06:52:00,40.3,35.2,29.32,WSW,248,0.0,0.0,82,0.00,,---,0.00,VWS V13.01,2013-09-24 10:52:00,
2013-09-24 06:56:00,40.3,35.2,29.32,WSW,248,0.0,0.0,82,0.00,,---,0.00,VWS V13.01,2013-09-24 10:56:00,
2013-09-24 06:57:00,40.3,35.2,29.32,WSW,248,0.0,0.0,82,0.00,,---,0.00,VWS V13.01,2013-09-24 10:57:00,
2013-09-24 06:58:00,40.3,35.2,29.32,WSW,248,0.0,0.0,82,0.00,,---,0.00,VWS V13.01,2013-09-24 10:58:00,
2013-09-24 06:59:00,40.3,35.2,29.32,WSW,248,0.0,0.0,82,0.00,,---,0.00,VWS V13.01,2013-09-24 10:59:00,
2013-09-24 07:01:00,40.3,35.2,29.32,WSW,248,0.0,0.0,82,0.00,,---,0.00,VWS V13.01,2013-09-24 11:01:00,
2013-09-24 07:02:00,40.3,35.2,29.32,WSW,248,0.0,0.0,82,0.00,,---,0.00,VWS V13.01,2013-09-24 11:02:00,
2013-09-24 07:03:00,40.3,35.2,29.32,WSW,248,0.0,0.0,82,0.00,,---,0.00,VWS V13.01,2013-09-24 11:03:00,
2013-09-24 07:06:00,40.3,35.2,29.32,WSW,248,0.0,0.0,82,0.00,,---,0.00,VWS V13.01,2013-09-24 11:06:00,
2013-09-24 07:08:00,40.3,35.2,29.32,WSW,248,0.0,0.0,82,0.00,,---,0.00,VWS V13.01,2013-09-24 11:08:00,
2013-09-24 07:09:00,40.3,35.2,29.32,WSW,248,0.0,0.0,82,0.00,,---,0.00,VWS V13.01,2013-09-24 11:09:00,
2013-09-24 07:10:00,40.3,35.2,29.32,WSW,248,0.0,0.0,82,0.00,,---,0.00,VWS V13.01,2013-09-24 11:10:00,
2013-09-24 07:12:00,40.3,35.2,29.32,WSW,248,0.0,0.0,82,0.00,,---,0.00,VWS V13.01,2013-09-24 11:12:00,
2013-09-24 07:17:00,40.3,35.2,29.32,WSW,248,0.0,0.0,82,0.00,,---,0.00,VWS V13.01,2013-09-24 11:17:00,
2013-09-24 07:18:00,40.3,35.2,29.32,WSW,248,0.0,0.0,82,0.00,,---,0.00,VWS V13.01,2013-09-24 11:18:00,
2013-09-24 07:19:00,40.3,35.2,29.32,WSW,248,0.0,0.0,82,0.00,,---,0.00,VWS V13.01,2013-09-24 11:19:00,
2013-09-24 07:22:00,40.3,35.2,29.32,WSW,248,0.0,0.0,82,0.00,,---,0.00,VWS V13.01,2013-09-24 11:22:00,
2013-09-24 07:24:00,40.3,35.2,29.32,WSW,248,0.0,0.0,82,0.00,,---,0.00,VWS V13.01,2013-09-24 11:24:00,
2013-09-24 07:26:00,40.3,35.2,29.32,WSW,248,0.0,0.0,82,0.00,,---,0.00,VWS V13.01,2013-09-24 11:26:00,
2013-09-24 07:27:00,40.3,35.2,29.32,WSW,248,0.0,0.0,82,0.00,,---,0.00,VWS V13.01,2013-09-24 11:27:00,
2013-09-24 07:30:00,40.3,35.2,29.32,WSW,248,0.0,0.0,82,0.00,,---,0.00,VWS V13.01,2013-09-24 11:30:00,
2013-09-24 07:32:00,40.3,35.2,29.32,WSW,248,0.0,0.0,82,0.00,,---,0.00,VWS V13.01,2013-09-24 11:32:00,
2013-09-24 07:35:00,40.3,35.2,29.32,WSW,248,0.0,0.0,82,0.00,,---,0.00,VWS V13.01,2013-09-24 11:35:00,
2013-09-24 07:36:00,40.3,35.2,29.32,WSW,248,0.0,0.0,82,0.00,,---,0.00,VWS V13.01,2013-09-24 11:36:00,
2013-09-24 07:38:00,40.5,35.7,29.32,WSW,248,0.0,0.0,83,0.00,,---,0.00,VWS V13.01,2013-09-24 11:38:00,
2013-09-24 07:39:00,40.5,35.7,29.32,WSW,248,0.0,0.0,83,0.00,,---,0.00,VWS V13.01,2013-09-24 11:39:00,
2013-09-24 07:42:00,40.5,35.7,29.32,WSW,248,0.0,0.0,83,0.00,,---,0.00,VWS V13.01,2013-09-24 11:42:00,
2013-09-24 07:43:00,40.5,35.7,29.32,WSW,248,0.0,0.0,83,0.00,,---,0.00,VWS V13.01,2013-09-24 11:43:00,
2013-09-24 07:47:00,40.5,35.7,29.32,WSW,248,0.0,0.0,83,0.00,,---,0.00,VWS V13.01,2013-09-24 11:47:00,
2013-09-24 07:49:00,40.5,35.7,29.32,WSW,248,0.0,0.0,83,0.00,,---,0.00,VWS V13.01,2013-09-24 11:49:00,
2013-09-24 07:50:00,40.5,35.7,29.32,WSW,248,0.0,0.0,83,0.00,,---,0.00,VWS V13.01,2013-09-24 11:50:00,
2013-09-24 07:52:00,41.4,36.9,29.32,WSW,248,0.0,0.0,84,0.00,,---,0.00,VWS V13.01,2013-09-24 11:52:00,
2013-09-24 07:54:00,41.4,36.9,29.32,WSW,248,0.0,0.0,84,0.00,,---,0.00,VWS V13.01,2013-09-24 11:54:00,
2013-09-24 07:56:00,41.4,36.9,29.32,WSW,248,0.0,0.0,84,0.00,,---,0.00,VWS V13.01,2013-09-24 11:56:00,
2013-09-24 07:57:00,41.4,36.9,29.32,WSW,248,0.0,0.0,84,0.00,,---,0.00,VWS V13.01,2013-09-24 11:57:00,
2013-09-24 07:58:00,41.4,36.9,29.32,WSW,248,0.0,0.0,84,0.00,,---,0.00,VWS V13.01,2013-09-24 11:58:00,
2013-09-24 08:03:00,41.4,36.9,29.32,WSW,248,0.0,0.0,84,0.00,,---,0.00,VWS V13.01,2013-09-24 12:03:00,
2013-09-24 08:04:00,41.4,36.9,29.32,WSW,248,0.0,0.0,84,0.00,,---,0.00,VWS V13.01,2013-09-24 12:04:00,
2013-09-24 08:05:00,41.4,36.9,29.32,WSW,248,0.0,0.0,84,0.00,,---,0.00,VWS V13.01,2013-09-24 12:05:00,
2013-09-24 08:06:00,41.4,36.9,29.32,WSW,248,0.0,0.0,84,0.00,,---,0.00,VWS V13.01,2013-09-24 12:06:00,
2013-09-24 08:09:00,42.3,38.1,29.32,WSW,248,0.0,0.0,85,0.00,,---,0.00,VWS V13.01,2013-09-24 12:09:00,
2013-09-24 08:10:00,42.4,38.3,29.32,WSW,248,0.0,0.0,85,0.00,,---,0.00,VWS V13.01,2013-09-24 12:10:00,
2013-09-24 08:11:00,42.4,38.3,29.32,WSW,248,0.0,0.0,85,0.00,,---,0.00,VWS V13.01,2013-09-24 12:11:00,
2013-09-24 08:14:00,42.4,38.3,29.32,WSW,248,0.0,0.0,85,0.00,,---,0.00,VWS V13.01,2013-09-24 12:14:00,
2013-09-24 08:15:00,42.4,38.3,29.32,WSW,248,0.0,0.0,85,0.00,,---,0.00,VWS V13.01,2013-09-24 12:15:00,
2013-09-24 08:16:00,42.4,38.3,29.32,WSW,248,0.0,0.0,85,0.00,,---,0.00,VWS V13.01,2013-09-24 12:16:00,
2013-09-24 08:19:00,42.4,38.3,29.32,WSW,248,0.0,0.0,85,0.00,,---,0.00,VWS V13.01,2013-09-24 12:19:00,
2013-09-24 08:20:00,42.4,38.3,29.32,WSW,248,0.0,0.0,85,0.00,,---,0.00,VWS V13.01,2013-09-24 12:20:00,
2013-09-24 08:24:00,42.4,38.3,29.32,WSW,248,0.0,0.0,85,0.00,,---,0.00,VWS V13.01,2013-09-24 12:24:00,
2013-09-24 08:26:00,42.4,38.3,29.32,WSW,248,0.0,0.0,85,0.00,,---,0.00,VWS V13.01,2013-09-24 12:26:00,
2013-09-24 08:28:00,44.2,40.0,29.32,WSW,248,0.0,0.0,85,0.00,,---,0.00,VWS V13.01,2013-09-24 12:28:00,
2013-09-24 08:30:00,44.2,40.0,29.32,WSW,248,0.0,0.0,85,0.00,,---,0.00,VWS V13.01,2013-09-24 12:30:00,
2013-09-24 08:31:00,44.4,39.9,29.32,SE,135,0.0,0.0,84,0.00,,---,0.00,VWS V13.01,2013-09-24 12:31:00,
2013-09-24 08:34:00,44.4,39.9,29.32,SE,135,0.0,0.0,84,0.00,,---,0.00,VWS V13.01,2013-09-24 12:34:00,
2013-09-24 08:36:00,44.4,39.9,29.32,SE,135,0.0,0.0,84,0.00,,---,0.00,VWS V13.01,2013-09-24 12:36:00,
2013-09-24 08:38:00,44.4,39.9,29.32,SE,135,0.0,0.0,84,0.00,,---,0.00,VWS V13.01,2013-09-24 12:38:00,
2013-09-24 08:40:00,44.4,39.9,29.32,SE,135,0.0,0.0,84,0.00,,---,0.00,VWS V13.01,2013-09-24 12:40:00,
2013-09-24 08:41:00,44.4,39.9,29.32,SE,135,0.0,0.0,84,0.00,,---,0.00,VWS V13.01,2013-09-24 12:41:00,
2013-09-24 08:44:00,45.7,41.1,29.32,SE,135,0.0,0.0,84,0.00,,---,0.00,VWS V13.01,2013-09-24 12:44:00,
2013-09-24 08:46:00,45.7,41.1,29.32,SSE,158,0.0,0.0,84,0.00,,---,0.00,VWS V13.01,2013-09-24 12:46:00,
2013-09-24 08:47:00,45.7,41.1,29.32,SSE,158,0.0,0.0,84,0.00,,---,0.00,VWS V13.01,2013-09-24 12:47:00,
2013-09-24 08:48:00,45.7,41.1,29.32,SSE,158,0.0,0.0,84,0.00,,---,0.00,VWS V13.01,2013-09-24 12:48:00,
2013-09-24 08:49:00,45.7,41.1,29.32,SSE,158,0.0,0.0,84,0.00,,---,0.00,VWS V13.01,2013-09-24 12:49:00,
2013-09-24 08:52:00,45.7,41.1,29.32,SSE,158,0.0,0.0,84,0.00,,---,0.00,VWS V13.01,2013-09-24 12:52:00,
2013-09-24 08:53:00,45.7,41.1,29.32,SSE,158,0.0,0.0,84,0.00,,---,0.00,VWS V13.01,2013-09-24 12:53:00,
2013-09-24 08:54:00,45.7,41.1,29.32,South,180,0.0,0.0,84,0.00,,---,0.00,VWS V13.01,2013-09-24 12:54:00,
2013-09-24 08:57:00,45.7,41.1,29.32,South,180,0.0,0.0,84,0.00,,---,0.00,VWS V13.01,2013-09-24 12:57:00,
2013-09-24 08:59:00,47.3,41.8,29.32,NNE,22,0.0,0.0,81,0.00,,---,0.00,VWS V13.01,2013-09-24 12:59:00,
2013-09-24 09:00:00,47.3,41.8,29.32,East,90,0.0,0.0,81,0.00,,---,0.00,VWS V13.01,2013-09-24 13:00:00,
2013-09-24 09:01:00,47.5,42.0,29.32,East,90,0.0,0.0,81,0.00,,---,0.00,VWS V13.01,2013-09-24 13:01:00,
2013-09-24 09:03:00,47.5,42.0,29.32,SSW,202,0.0,0.0,81,0.00,,---,0.00,VWS V13.01,2013-09-24 13:03:00,
2013-09-24 09:05:00,47.5,42.0,29.32,WSW,248,2.5,2.5,81,0.00,,---,0.00,VWS V13.01,2013-09-24 13:05:00,
2013-09-24 09:06:00,47.5,42.0,29.32,South,180,1.6,2.5,81,0.00,,---,0.00,VWS V13.01,2013-09-24 13:06:00,
2013-09-24 09:07:00,47.5,42.0,29.32,South,180,0.0,1.6,81,0.00,,---,0.00,VWS V13.01,2013-09-24 13:07:00,
2013-09-24 09:11:00,47.5,42.0,29.32,SSE,158,0.0,0.0,81,0.00,,---,0.00,VWS V13.01,2013-09-24 13:11:00,
2013-09-24 09:12:00,47.5,42.0,29.32,East,90,0.0,0.0,81,0.00,,---,0.00,VWS V13.01,2013-09-24 13:12:00,
2013-09-24 09:13:00,47.5,42.0,29.32,WSW,248,0.9,0.9,81,0.00,,---,0.00,VWS V13.01,2013-09-24 13:13:00,
2013-09-24 09:16:00,48.7,41.5,29.29,WSW,248,2.2,2.2,76,0.00,,---,0.00,VWS V13.01,2013-09-24 13:16:00,
2013-09-24 09:18:00,48.7,41.5,29.29,West,270,2.2,2.2,76,0.00,,---,0.00,VWS V13.01,2013-09-24 13:18:00,
2013-09-24 09:19:00,48.7,41.5,29.29,South,180,0.0,2.2,76,0.00,,---,0.00,VWS V13.01,2013-09-24 13:19:00,
2013-09-24 09:21:00,48.7,41.5,29.29,South,180,0.0,0.0,76,0.00,,---,0.00,VWS V13.01,2013-09-24 13:21:00,
2013-09-24 09:23:00,49.1,41.5,29.29,WSW,248,1.6,1.6,75,0.00,,---,0.00,VWS V13.01,2013-09-24 13:23:00,
2013-09-24 09:25:00,49.1,41.5,29.29,WSW,248,1.6,1.6,75,0.00,,---,0.00,VWS V13.01,2013-09-24 13:25:00,
2013-09-24 09:26:00,49.1,41.5,29.29,ESE,112,1.3,1.6,75,0.00,,---,0.00,VWS V13.01,2013-09-24 13:26:00,
2013-09-24 09:27:00,49.1,41.5,29.29,South,180,0.0,1.3,75,0.00,,---,0.00,VWS V13.01,2013-09-24 13:27:00,
2013-09-24 09:28:00,49.1,41.5,29.29,WSW,248,0.0,0.0,75,0.00,,---,0.00,VWS V13.01,2013-09-24 13:28:00,
2013-09-24 09:30:00,49.5,41.5,29.29,NNW,338,0.0,0.0,74,0.00,,---,0.00,VWS V13.01,2013-09-24 13:30:00,
2013-09-24 09:33:00,49.6,41.7,29.29,SSW,202,0.0,0.0,74,0.00,,---,0.00,VWS V13.01,2013-09-24 13:33:00,
2013-09-24 09:34:00,49.6,41.7,29.29,WSW,248,0.0,0.0,74,0.00,,---,0.00,VWS V13.01,2013-09-24 13:34:00,
2013-09-24 09:35:00,49.6,41.7,29.29,WNW,292,0.9,0.9,74,0.00,,---,0.00,VWS V13.01,2013-09-24 13:35:00,
2013-09-24 09:37:00,49.6,41.7,29.29,South,180,0.0,0.0,74,0.00,,---,0.00,VWS V13.01,2013-09-24 13:37:00,
2013-09-24 09:38:00,49.6,41.7,29.29,SSW,202,1.1,1.1,74,0.00,,---,0.00,VWS V13.01,2013-09-24 13:38:00,
2013-09-24 09:39:00,49.6,41.7,29.29,West,270,2.0,2.0,74,0.00,,---,0.00,VWS V13.01,2013-09-24 13:39:00,
2013-09-24 09:40:00,49.6,41.7,29.29,SSW,202,0.0,2.0,74,0.00,,---,0.00,VWS V13.01,2013-09-24 13:40:00,
2013-09-24 09:41:00,49.6,41.7,29.29,South,180,0.0,0.0,74,0.00,,---,0.00,VWS V13.01,2013-09-24 13:41:00,
2013-09-24 09:44:00,49.6,41.7,29.29,NW,315,0.0,0.0,74,0.00,,---,0.00,VWS V13.01,2013-09-24 13:44:00,
2013-09-24 09:45:00,49.6,41.7,29.29,NNW,338,0.0,0.0,74,0.00,,---,0.00,VWS V13.01,2013-09-24 13:45:00,
2013-09-24 09:46:00,49.6,41.7,29.29,West,270,0.0,1.3,74,0.00,,---,0.00,VWS V13.01,2013-09-24 13:46:00,
2013-09-24 09:47:00,49.6,41.7,29.29,SSW,202,2.5,2.5,74,0.00,,---,0.00,VWS V13.01,2013-09-24 13:47:00,
2013-09-24 09:48:00,49.6,41.7,29.29,WSW,248,0.0,2.5,74,0.00,,---,0.00,VWS V13.01,2013-09-24 13:48:00,
2013-09-24 09:52:00,50.4,42.0,29.29,NW,315,0.0,0.0,73,0.00,,---,0.00,VWS V13.01,2013-09-24 13:52:00,
2013-09-24 09:53:00,50.4,42.0,29.29,ENE,68,1.6,1.6,73,0.00,,---,0.00,VWS V13.01,2013-09-24 13:53:00,
2013-09-24 09:54:00,50.5,42.2,29.29,East,90,0.0,1.6,73,0.00,,---,0.00,VWS V13.01,2013-09-24 13:54:00,
2013-09-24 09:55:00,50.5,42.2,29.29,East,90,1.3,1.3,73,0.00,,---,0.00,VWS V13.01,2013-09-24 13:55:00,
2013-09-24 09:57:00,50.5,42.2,29.29,East,90,0.0,0.0,73,0.00,,---,0.00,VWS V13.01,2013-09-24 13:57:00,
2013-09-24 09:59:00,50.5,42.2,29.29,WSW,248,0.0,0.9,73,0.00,,---,0.00,VWS V13.01,2013-09-24 13:59:00,
2013-09-24 10:02:00,50.5,42.2,29.29,West,270,0.9,0.9,73,0.00,,---,0.00,VWS V13.01,2013-09-24 14:02:00,
2013-09-24 10:04:00,50.5,42.2,29.29,WSW,248,0.0,0.0,73,0.00,,---,0.00,VWS V13.01,2013-09-24 14:04:00,
2013-09-24 10:07:00,50.5,42.2,29.29,North,0,1.3,1.3,73,0.00,,---,0.00,VWS V13.01,2013-09-24 14:07:00,
2013-09-24 10:08:00,50.5,42.2,29.29,West,270,1.3,1.3,73,0.00,,---,0.00,VWS V13.01,2013-09-24 14:08:00,
2013-09-24 10:11:00,50.5,42.2,29.29,SW,225,0.0,0.0,73,0.00,,---,0.00,VWS V13.01,2013-09-24 14:11:00,
2013-09-24 10:12:00,50.5,42.2,29.29,South,180,0.0,0.0,73,0.00,,---,0.00,VWS V13.01,2013-09-24 14:12:00,
2013-09-24 10:13:00,50.5,42.2,29.29,East,90,0.0,0.0,73,0.00,,---,0.00,VWS V13.01,2013-09-24 14:13:00,
2013-09-24 10:14:00,50.5,42.2,29.29,East,90,0.0,0.0,73,0.00,,---,0.00,VWS V13.01,2013-09-24 14:14:00,
2013-09-24 10:15:00,50.5,42.2,29.29,West,270,0.0,0.0,73,0.00,,---,0.00,VWS V13.01,2013-09-24 14:15:00,
2013-09-24 10:19:00,50.5,42.2,29.29,ESE,112,1.1,1.1,73,0.00,,---,0.00,VWS V13.01,2013-09-24 14:19:00,
2013-09-24 10:20:00,50.5,42.2,29.29,SW,225,0.0,1.1,73,0.00,,---,0.00,VWS V13.01,2013-09-24 14:20:00,
2013-09-24 10:21:00,50.5,42.2,29.29,West,270,0.0,0.0,73,0.00,,---,0.00,VWS V13.01,2013-09-24 14:21:00,
2013-09-24 10:22:00,52.3,43.2,29.29,West,270,0.0,0.0,71,0.00,,---,0.00,VWS V13.01,2013-09-24 14:22:00,
2013-09-24 10:25:00,52.3,43.2,29.29,WSW,248,2.5,2.5,71,0.00,,---,0.00,VWS V13.01,2013-09-24 14:25:00,
2013-09-24 10:27:00,52.3,43.2,29.29,ESE,112,0.0,0.0,71,0.00,,---,0.00,VWS V13.01,2013-09-24 14:27:00,
2013-09-24 10:28:00,52.3,43.2,29.29,ESE,112,0.0,0.0,71,0.00,,---,0.00,VWS V13.01,2013-09-24 14:28:00,
2013-09-24 10:29:00,52.3,43.2,29.29,North,0,0.9,0.9,71,0.00,,---,0.00,VWS V13.01,2013-09-24 14:29:00,
2013-09-24 10:31:00,52.3,43.2,29.29,North,0,0.0,2.0,71,0.00,,---,0.00,VWS V13.01,2013-09-24 14:31:00,
2013-09-24 10:33:00,53.4,43.5,29.29,West,270,2.2,2.2,69,0.00,,---,0.00,VWS V13.01,2013-09-24 14:33:00,
2013-09-24 10:35:00,53.4,43.1,29.29,SSE,158,0.0,1.6,68,0.00,,---,0.00,VWS V13.01,2013-09-24 14:35:00,
2013-09-24 10:39:00,53.6,42.9,29.29,West,270,0.0,0.0,67,0.00,,---,0.00,VWS V13.01,2013-09-24 14:39:00,
2013-09-24 10:40:00,53.6,42.9,29.29,West,270,1.1,2.7,67,0.00,,---,0.00,VWS V13.01,2013-09-24 14:40:00,
2013-09-24 10:41:00,53.6,42.9,29.29,West,270,1.1,1.1,67,0.00,,---,0.00,VWS V13.01,2013-09-24 14:41:00,
2013-09-24 10:43:00,53.6,42.9,29.29,East,90,0.0,0.0,67,0.00,,---,0.00,VWS V13.01,2013-09-24 14:43:00,
2013-09-24 10:46:00,53.6,42.9,29.29,SW,225,0.0,1.3,67,0.00,,---,0.00,VWS V13.01,2013-09-24 14:46:00,
2013-09-24 10:48:00,54.5,43.4,29.29,SSE,158,0.0,0.0,66,0.00,,---,0.00,VWS V13.01,2013-09-24 14:48:00,
2013-09-24 10:49:00,54.5,43.4,29.29,WSW,248,0.0,0.0,66,0.00,,---,0.00,VWS V13.01,2013-09-24 14:49:00,
2013-09-24 10:52:00,54.7,43.6,29.29,North,0,1.1,1.1,66,0.00,,---,0.00,VWS V13.01,2013-09-24 14:52:00,
2013-09-24 10:53:00,54.7,43.6,29.29,SW,225,0.0,1.3,66,0.00,,---,0.00,VWS V13.01,2013-09-24 14:53:00,
2013-09-24 10:55:00,54.7,43.6,29.29,WSW,248,0.9,0.9,66,0.00,,---,0.00,VWS V13.01,2013-09-24 14:55:00,
2013-09-24 10:56:00,54.7,43.6,29.29,South,180,0.0,0.9,66,0.00,,---,0.00,VWS V13.01,2013-09-24 14:56:00,
2013-09-24 10:57:00,54.7,43.6,29.29,South,180,0.0,0.0,66,0.00,,---,0.00,VWS V13.01,2013-09-24 14:57:00,
2013-09-24 10:58:00,54.7,43.6,29.29,North,0,0.0,0.0,66,0.00,,---,0.00,VWS V13.01,2013-09-24 14:58:00,
2013-09-24 10:59:00,54.7,43.6,29.29,SW,225,0.9,0.9,66,0.00,,---,0.00,VWS V13.01,2013-09-24 14:59:00,
2013-09-24 11:01:00,55.2,43.7,29.29,SW,225,0.0,0.0,65,0.00,,---,0.00,VWS V13.01,2013-09-24 15:01:00,
2013-09-24 11:03:00,55.2,43.7,29.29,WSW,248,0.0,0.0,65,0.00,,---,0.00,VWS V13.01,2013-09-24 15:03:00,
2013-09-24 11:04:00,55.2,43.7,29.29,SW,225,0.0,0.0,65,0.00,,---,0.00,VWS V13.01,2013-09-24 15:04:00,
2013-09-24 11:05:00,55.2,43.7,29.29,North,0,1.6,1.6,65,0.00,,---,0.00,VWS V13.01,2013-09-24 15:05:00,
2013-09-24 11:06:00,55.2,43.7,29.29,North,0,0.0,1.6,65,0.00,,---,0.00,VWS V13.01,2013-09-24 15:06:00,
2013-09-24 11:09:00,55.2,43.7,29.26,SW,225,0.0,0.0,65,0.00,,---,0.00,VWS V13.01,2013-09-24 15:09:00,
2013-09-24 11:10:00,55.9,44.0,29.26,SW,225,0.0,0.0,64,0.00,,---,0.00,VWS V13.01,2013-09-24 15:10:00,
2013-09-24 11:11:00,55.9,44.0,29.26,WSW,248,1.3,1.3,64,0.00,,---,0.00,VWS V13.01,2013-09-24 15:11:00,
2013-09-24 11:12:00,55.9,44.0,29.26,South,180,0.0,1.3,64,0.00,,---,0.00,VWS V13.01,2013-09-24 15:12:00,
2013-09-24 11:15:00,55.9,44.0,29.26,ENE,68,2.0,2.0,64,0.00,,---,0.00,VWS V13.01,2013-09-24 15:15:00,
2013-09-24 11:17:00,55.9,44.0,29.26,East,90,2.2,2.2,64,0.00,,---,0.00,VWS V13.01,2013-09-24 15:17:00,
2013-09-24 11:19:00,55.9,44.0,29.26,NW,315,0.0,0.0,64,0.00,,---,0.00,VWS V13.01,2013-09-24 15:19:00,
2013-09-24 11:20:00,55.9,44.0,29.26,NNW,338,0.0,0.0,64,0.00,,---,0.00,VWS V13.01,2013-09-24 15:20:00,
2013-09-24 11:23:00,55.9,44.0,29.26,SE,135,0.0,0.0,64,0.00,,---,0.00,VWS V13.01,2013-09-24 15:23:00,
2013-09-24 11:25:00,56.8,44.8,29.26,ESE,112,0.0,0.0,64,0.00,,---,0.00,VWS V13.01,2013-09-24 15:25:00,
2013-09-24 11:28:00,56.8,44.8,29.26,SE,135,0.0,1.1,64,0.00,,---,0.00,VWS V13.01,2013-09-24 15:28:00,
2013-09-24 11:29:00,56.8,44.8,29.26,SE,135,0.0,0.0,64,0.00,,---,0.00,VWS V13.01,2013-09-24 15:29:00,
2013-09-24 11:33:00,56.8,44.8,29.26,SW,225,0.0,0.0,64,0.00,,---,0.00,VWS V13.01,2013-09-24 15:33:00,
2013-09-24 11:35:00,56.8,44.8,29.26,East,90,3.1,3.1,64,0.00,,---,0.00,VWS V13.01,2013-09-24 15:35:00,
2013-09-24 11:36:00,56.8,44.8,29.26,NE,45,2.0,3.1,64,0.00,,---,0.00,VWS V13.01,2013-09-24 15:36:00,
2013-09-24 11:38:00,56.8,44.8,29.26,WNW,292,0.9,2.0,64,0.00,,---,0.00,VWS V13.01,2013-09-24 15:38:00,
2013-09-24 11:41:00,56.8,44.8,29.26,WNW,292,1.3,1.3,64,0.00,,---,0.00,VWS V13.01,2013-09-24 15:41:00,
2013-09-24 11:43:00,56.8,44.8,29.26,WSW,248,2.0,2.0,64,0.00,,---,0.00,VWS V13.01,2013-09-24 15:43:00,
2013-09-24 11:47:00,56.8,44.8,29.26,East,90,2.7,2.7,64,0.00,,---,0.00,VWS V13.01,2013-09-24 15:47:00,
2013-09-24 11:49:00,56.8,44.8,29.26,East,90,1.1,2.0,64,0.00,,---,0.00,VWS V13.01,2013-09-24 15:49:00,
2013-09-24 11:51:00,56.8,44.8,29.26,North,0,1.3,1.3,64,0.00,,---,0.00,VWS V13.01,2013-09-24 15:51:00,
2013-09-24 11:53:00,56.8,44.8,29.26,NE,45,3.4,3.4,64,0.00,,---,0.00,VWS V13.01,2013-09-24 15:53:00,
2013-09-24 11:54:00,56.8,44.8,29.26,ENE,68,3.1,3.4,64,0.00,,---,0.00,VWS V13.01,2013-09-24 15:54:00,
2013-09-24 11:57:00,56.8,44.8,29.26,SSW,202,0.0,0.0,64,0.00,,---,0.00,VWS V13.01,2013-09-24 15:57:00,
2013-09-24 11:58:00,56.8,44.8,29.26,WNW,292,1.3,1.3,64,0.00,,---,0.00,VWS V13.01,2013-09-24 15:58:00,
2013-09-24 11:59:00,56.8,44.8,29.26,SW,225,1.3,1.3,64,0.00,,---,0.00,VWS V13.01,2013-09-24 15:59:00,
2013-09-24 12:00:00,56.8,44.8,29.26,SSW,202,0.9,1.3,64,0.00,,---,0.00,VWS V13.01,2013-09-24 16:00:00,
2013-09-24 12:01:00,58.8,43.6,29.26,WSW,248,1.1,1.1,57,0.00,,---,0.00,VWS V13.01,2013-09-24 16:01:00,
2013-09-24 12:03:00,58.8,44.1,29.26,SSW,202,0.0,1.1,58,0.00,,---,0.00,VWS V13.01,2013-09-24 16:03:00,
2013-09-24 12:06:00,58.8,44.1,29.26,WSW,248,0.9,0.9,58,0.00,,---,0.00,VWS V13.01,2013-09-24 16:06:00,
2013-09-24 12:07:00,58.8,44.1,29.26,SW,225,0.0,0.0,58,0.00,,---,0.00,VWS V13.01,2013-09-24 16:07:00,
2013-09-24 12:09:00,58.8,44.1,29.26,SSW,202,1.3,1.3,58,0.00,,---,0.00,VWS V13.01,2013-09-24 16:09:00,
2013-09-24 12:11:00,58.8,44.1,29.26,WSW,248,0.0,0.0,58,0.00,,---,0.00,VWS V13.01,2013-09-24 16:11:00,
2013-09-24 12:15:00,59.7,44.5,29.26,SSW,202,1.3,3.4,57,0.00,,---,0.00,VWS V13.01,2013-09-24 16:15:00,
2013-09-24 12:16:00,59.7,44.5,29.26,South,180,1.6,1.6,57,0.00,,---,0.00,VWS V13.01,2013-09-24 16:16:00,
2013-09-24 12:17:00,59.7,44.5,29.26,WSW,248,1.1,1.6,57,0.00,,---,0.00,VWS V13.01,2013-09-24 16:17:00,
2013-09-24 12:20:00,59.7,44.5,29.26,South,180,0.9,1.3,57,0.00,,---,0.00,VWS V13.01,2013-09-24 16:20:00,
2013-09-24 12:21:00,59.7,44.5,29.26,WSW,248,0.9,0.9,57,0.00,,---,0.00,VWS V13.01,2013-09-24 16:21:00,
2013-09-24 12:22:00,59.7,44.5,29.26,WSW,248,0.0,1.6,57,0.00,,---,0.00,VWS V13.01,2013-09-24 16:22:00,
2013-09-24 12:23:00,59.7,44.5,29.26,South,180,0.0,0.0,57,0.00,,---,0.00,VWS V13.01,2013-09-24 16:23:00,
2013-09-24 12:26:00,59.7,44.5,29.26,South,180,0.0,1.1,57,0.00,,---,0.00,VWS V13.01,2013-09-24 16:26:00,
2013-09-24 12:27:00,59.7,44.5,29.26,SSE,158,0.0,0.0,57,0.00,,---,0.00,VWS V13.01,2013-09-24 16:27:00,
2013-09-24 12:30:00,59.7,44.5,29.26,SSW,202,0.0,0.0,57,0.00,,---,0.00,VWS V13.01,2013-09-24 16:30:00,
2013-09-24 12:31:00,60.6,44.4,29.26,WSW,248,1.6,1.6,55,0.00,,---,0.00,VWS V13.01,2013-09-24 16:31:00,
2013-09-24 12:32:00,60.6,44.4,29.26,South,180,0.9,1.6,55,0.00,,---,0.00,VWS V13.01,2013-09-24 16:32:00,
2013-09-24 12:33:00,60.6,44.4,29.26,SSW,202,2.9,2.9,55,0.00,,---,0.00,VWS V13.01,2013-09-24 16:33:00,
2013-09-24 12:34:00,60.6,44.4,29.26,SSW,202,2.9,2.9,55,0.00,,---,0.00,VWS V13.01,2013-09-24 16:34:00,
2013-09-24 12:38:00,60.6,44.4,29.26,WSW,248,0.0,0.0,55,0.00,,---,0.00,VWS V13.01,2013-09-24 16:38:00,
2013-09-24 12:39:00,60.6,44.4,29.26,SSE,158,0.0,0.0,55,0.00,,---,0.00,VWS V13.01,2013-09-24 16:39:00,
2013-09-24 12:43:00,60.6,44.4,29.26,West,270,0.0,0.0,55,0.00,,---,0.00,VWS V13.01,2013-09-24 16:43:00,
2013-09-24 12:44:00,60.6,44.4,29.26,West,270,0.0,0.0,55,0.00,,---,0.00,VWS V13.01,2013-09-24 16:44:00,
2013-09-24 12:45:00,60.6,44.4,29.26,SSW,202,0.0,0.0,55,0.00,,---,0.00,VWS V13.01,2013-09-24 16:45:00,
2013-09-24 12:48:00,60.6,44.4,29.23,WSW,248,0.9,1.6,55,0.00,,---,0.00,VWS V13.01,2013-09-24 16:48:00,
2013-09-24 12:50:00,60.6,44.4,29.23,South,180,0.0,1.6,55,0.00,,---,0.00,VWS V13.01,2013-09-24 16:50:00,
2013-09-24 12:51:00,60.6,44.4,29.23,SW,225,0.0,0.9,55,0.00,,---,0.00,VWS V13.01,2013-09-24 16:51:00,
2013-09-24 12:53:00,60.6,44.4,29.23,WNW,292,0.0,0.0,55,0.00,,---,0.00,VWS V13.01,2013-09-24 16:53:00,
2013-09-24 12:55:00,60.6,44.4,29.23,SSW,202,0.0,0.0,55,0.00,,---,0.00,VWS V13.01,2013-09-24 16:55:00,
2013-09-24 12:57:00,61.9,44.6,29.23,NW,315,0.9,0.9,53,0.00,,---,0.00,VWS V13.01,2013-09-24 16:57:00,
2013-09-24 12:59:00,61.9,44.6,29.23,SSW,202,0.9,0.9,53,0.00,,---,0.00,VWS V13.01,2013-09-24 16:59:00,
2013-09-24 13:01:00,61.9,44.6,29.23,SSE,158,1.3,1.3,53,0.00,,---,0.00,VWS V13.01,2013-09-24 17:01:00,
2013-09-24 13:04:00,62.1,44.2,29.23,NE,45,0.0,0.0,52,0.00,,---,0.00,VWS V13.01,2013-09-24 17:04:00,
2013-09-24 13:05:00,62.1,44.2,29.23,NNE,22,2.0,2.5,52,0.00,,---,0.00,VWS V13.01,2013-09-24 17:05:00,
2013-09-24 13:07:00,62.1,44.2,29.23,SE,135,0.9,2.0,52,0.00,,---,0.00,VWS V13.01,2013-09-24 17:07:00,
2013-09-24 13:10:00,62.1,44.2,29.23,WSW,248,1.1,3.1,52,0.00,,---,0.00,VWS V13.01,2013-09-24 17:10:00,
2013-09-24 13:11:00,62.1,44.2,29.23,WSW,248,0.9,1.1,52,0.00,,---,0.00,VWS V13.01,2013-09-24 17:11:00,
2013-09-24 13:12:00,62.1,44.2,29.23,SW,225,0.0,0.9,52,0.00,,---,0.00,VWS V13.01,2013-09-24 17:12:00,
2013-09-24 13:14:00,62.1,44.2,29.23,WSW,248,0.0,2.0,52,0.00,,---,0.00,VWS V13.01,2013-09-24 17:14:00,
2013-09-24 13:18:00,62.1,44.2,29.23,South,180,0.0,0.0,52,0.00,,---,0.00,VWS V13.01,2013-09-24 17:18:00,
2013-09-24 13:19:00,62.8,45.4,29.23,East,90,1.1,1.1,53,0.00,,---,0.00,VWS V13.01,2013-09-24 17:19:00,
2013-09-24 13:20:00,62.8,45.4,29.23,East,90,1.1,1.1,53,0.00,,---,0.00,VWS V13.01,2013-09-24 17:20:00,
2013-09-24 13:21:00,62.8,45.4,29.23,NW,315,1.6,1.6,53,0.00,,---,0.00,VWS V13.01,2013-09-24 17:21:00,
2013-09-24 13:23:00,62.8,45.4,29.23,North,0,2.2,2.2,53,0.00,,---,0.00,VWS V13.01,2013-09-24 17:23:00,
2013-09-24 13:24:00,62.8,45.4,29.23,North,0,0.9,2.2,53,0.00,,---,0.00,VWS V13.01,2013-09-24 17:24:00,
2013-09-24 13:26:00,62.8,45.4,29.23,SSW,202,0.0,1.1,53,0.00,,---,0.00,VWS V13.01,2013-09-24 17:26:00,
2013-09-24 13:28:00,62.8,45.4,29.23,West,270,1.6,1.6,53,0.00,,---,0.00,VWS V13.01,2013-09-24 17:28:00,
2013-09-24 13:30:00,62.8,45.4,29.23,North,0,1.3,2.0,53,0.00,,---,0.00,VWS V13.01,2013-09-24 17:30:00,
2013-09-24 13:32:00,62.8,45.4,29.23,South,180,0.0,0.0,53,0.00,,---,0.00,VWS V13.01,2013-09-24 17:32:00,
2013-09-24 13:34:00,62.8,45.4,29.23,West,270,0.0,0.9,53,0.00,,---,0.00,VWS V13.01,2013-09-24 17:34:00,
2013-09-24 13:36:00,62.8,45.4,29.23,NE,45,0.0,0.0,53,0.00,,---,0.00,VWS V13.01,2013-09-24 17:36:00,
2013-09-24 13:38:00,63.3,44.9,29.23,NE,45,2.7,2.7,51,0.00,,---,0.00,VWS V13.01,2013-09-24 17:38:00,
2013-09-24 13:41:00,63.3,44.9,29.23,WSW,248,0.0,1.6,51,0.00,,---,0.00,VWS V13.01,2013-09-24 17:41:00,
2013-09-24 13:42:00,63.3,44.9,29.23,South,180,0.0,0.0,51,0.00,,---,0.00,VWS V13.01,2013-09-24 17:42:00,
2013-09-24 13:44:00,63.3,44.9,29.23,North,0,0.0,1.6,51,0.00,,---,0.00,VWS V13.01,2013-09-24 17:44:00,
2013-09-24 13:46:00,63.3,44.9,29.20,SSW,202,0.0,2.0,51,0.00,,---,0.00,VWS V13.01,2013-09-24 17:46:00,
2013-09-24 13:48:00,63.5,45.1,29.20,ENE,68,2.9,2.9,51,0.00,,---,0.00,VWS V13.01,2013-09-24 17:48:00,
2013-09-24 13:49:00,63.5,45.1,29.20,NW,315,1.1,2.9,51,0.00,,---,0.00,VWS V13.01,2013-09-24 17:49:00,
2013-09-24 13:50:00,63.5,45.1,29.20,West,270,2.5,2.5,51,0.00,,---,0.00,VWS V13.01,2013-09-24 17:50:00,
2013-09-24 13:51:00,63.5,45.1,29.20,West,270,1.6,2.5,51,0.00,,---,0.00,VWS V13.01,2013-09-24 17:51:00,
2013-09-24 13:55:00,63.7,45.2,29.20,South,180,0.0,0.0,51,0.00,,---,0.00,VWS V13.01,2013-09-24 17:55:00,
2013-09-24 13:56:00,63.7,45.2,29.20,South,180,3.6,3.6,51,0.00,,---,0.00,VWS V13.01,2013-09-24 17:56:00,
2013-09-24 13:58:00,63.7,45.2,29.20,SSW,202,2.7,2.7,51,0.00,,---,0.00,VWS V13.01,2013-09-24 17:58:00,
2013-09-24 14:01:00,63.7,45.2,29.20,WNW,292,2.2,2.2,51,0.00,,---,0.00,VWS V13.01,2013-09-24 18:01:00,
2013-09-24 14:02:00,63.7,45.2,29.20,NE,45,0.0,2.2,51,0.00,,---,0.00,VWS V13.01,2013-09-24 18:02:00,
2013-09-24 14:03:00,63.7,45.2,29.20,SSW,202,1.1,1.1,51,0.00,,---,0.00,VWS V13.01,2013-09-24 18:03:00,
2013-09-24 14:04:00,63.7,45.2,29.20,NNE,22,2.5,2.5,51,0.00,,---,0.00,VWS V13.01,2013-09-24 18:04:00,
2013-09-24 14:08:00,64.2,44.7,29.20,East,90,1.3,1.3,49,0.00,,---,0.00,VWS V13.01,2013-09-24 18:08:00,
2013-09-24 14:10:00,64.2,44.7,29.20,West,270,0.9,3.4,49,0.00,,---,0.00,VWS V13.01,2013-09-24 18:10:00,
2013-09-24 14:11:00,64.2,44.7,29.20,SW,225,0.0,0.9,49,0.00,,---,0.00,VWS V13.01,2013-09-24 18:11:00,
2013-09-24 14:13:00,64.2,44.7,29.20,WSW,248,0.9,0.9,49,0.00,,---,0.00,VWS V13.01,2013-09-24 18:13:00,
2013-09-24 14:16:00,64.2,44.7,29.20,South,180,1.1,1.3,49,0.00,,---,0.00,VWS V13.01,2013-09-24 18:16:00,
2013-09-24 14:17:00,64.2,44.7,29.20,WSW,248,2.7,2.7,49,0.00,,---,0.00,VWS V13.01,2013-09-24 18:17:00,
2013-09-24 14:18:00,64.2,44.7,29.20,South,180,0.9,2.7,49,0.00,,---,0.00,VWS V13.01,2013-09-24 18:18:00,
2013-09-24 14:22:00,64.2,44.7,29.20,SSW,202,1.3,1.3,49,0.00,,---,0.00,VWS V13.01,2013-09-24 18:22:00,
2013-09-24 14:23:00,64.2,44.7,29.20,NE,45,2.7,2.7,49,0.00,,---,0.00,VWS V13.01,2013-09-24 18:23:00,
2013-09-24 14:27:00,64.2,44.7,29.20,SSW,202,1.6,1.6,49,0.00,,---,0.00,VWS V13.01,2013-09-24 18:27:00,
2013-09-24 14:30:00,64.2,44.7,29.20,East,90,0.0,1.1,49,0.00,,---,0.00,VWS V13.01,2013-09-24 18:30:00,
2013-09-24 14:33:00,65.1,45.5,29.20,South,180,0.9,2.5,49,0.00,,---,0.00,VWS V13.01,2013-09-24 18:33:00,
2013-09-24 14:34:00,65.1,45.5,29.20,WSW,248,0.0,0.9,49,0.00,,---,0.00,VWS V13.01,2013-09-24 18:34:00,
2013-09-24 14:36:00,65.1,45.5,29.20,SSW,202,0.0,0.0,49,0.00,,---,0.00,VWS V13.01,2013-09-24 18:36:00,
2013-09-24 14:37:00,65.1,45.5,29.20,NE,45,2.2,2.2,49,0.00,,---,0.00,VWS V13.01,2013-09-24 18:37:00,
2013-09-24 14:39:00,65.1,45.5,29.20,SW,225,0.0,4.0,49,0.00,,---,0.00,VWS V13.01,2013-09-24 18:39:00,
2013-09-24 14:42:00,65.5,45.3,29.20,South,180,0.0,0.0,48,0.00,,---,0.00,VWS V13.01,2013-09-24 18:42:00,
2013-09-24 14:46:00,65.5,45.3,29.20,WSW,248,0.0,0.0,48,0.00,,---,0.00,VWS V13.01,2013-09-24 18:46:00,
2013-09-24 14:47:00,65.5,45.3,29.20,SW,225,0.0,0.0,48,0.00,,---,0.00,VWS V13.01,2013-09-24 18:47:00,
2013-09-24 14:48:00,65.5,45.3,29.20,SSW,202,0.0,0.0,48,0.00,,---,0.00,VWS V13.01,2013-09-24 18:48:00,
2013-09-24 14:51:00,65.5,45.3,29.20,NNE,22,0.0,0.0,48,0.00,,---,0.00,VWS V13.01,2013-09-24 18:51:00,
2013-09-24 14:52:00,65.5,45.3,29.20,SW,225,0.0,0.0,48,0.00,,---,0.00,VWS V13.01,2013-09-24 18:52:00,
2013-09-24 14:53:00,65.5,45.3,29.20,West,270,3.1,3.1,48,0.00,,---,0.00,VWS V13.01,2013-09-24 18:53:00,
2013-09-24 14:54:00,65.5,45.3,29.20,ESE,112,1.3,3.1,48,0.00,,---,0.00,VWS V13.01,2013-09-24 18:54:00,
2013-09-24 14:56:00,65.5,45.3,29.20,NE,45,0.0,0.0,48,0.00,,---,0.00,VWS V13.01,2013-09-24 18:56:00,
2013-09-24 14:58:00,65.8,45.1,29.20,SSW,202,0.9,0.9,47,0.00,,---,0.00,VWS V13.01,2013-09-24 18:58:00,
2013-09-24 15:00:00,65.8,45.1,29.20,NE,45,1.3,1.3,47,0.00,,---,0.00,VWS V13.01,2013-09-24 19:00:00,
2013-09-24 15:01:00,65.8,45.1,29.20,NW,315,0.9,1.3,47,0.00,,---,0.00,VWS V13.01,2013-09-24 19:01:00,
2013-09-24 15:02:00,65.8,45.1,29.20,NNE,22,1.6,1.6,47,0.00,,---,0.00,VWS V13.01,2013-09-24 19:02:00,
2013-09-24 15:06:00,65.8,45.1,29.20,SW,225,0.0,0.9,47,0.00,,---,0.00,VWS V13.01,2013-09-24 19:06:00,
2013-09-24 15:07:00,65.8,45.1,29.20,SSW,202,0.0,0.0,47,0.00,,---,0.00,VWS V13.01,2013-09-24 19:07:00,
2013-09-24 15:08:00,65.8,45.1,29.20,ENE,68,0.0,0.0,47,0.00,,---,0.00,VWS V13.01,2013-09-24 19:08:00,
2013-09-24 15:12:00,65.8,45.1,29.20,SE,135,0.0,0.0,47,0.00,,---,0.00,VWS V13.01,2013-09-24 19:12:00,
2013-09-24 15:13:00,65.8,45.1,29.20,NNE,22,2.0,2.0,47,0.00,,---,0.00,VWS V13.01,2013-09-24 19:13:00,
2013-09-24 15:14:00,65.8,45.1,29.20,South,180,0.0,2.0,47,0.00,,---,0.00,VWS V13.01,2013-09-24 19:14:00,
2013-09-24 15:15:00,65.8,45.1,29.20,West,270,0.9,0.9,47,0.00,,---,0.00,VWS V13.01,2013-09-24 19:15:00,
2013-09-24 15:17:00,65.8,45.1,29.20,NE,45,1.1,1.1,47,0.00,,---,0.00,VWS V13.01,2013-09-24 19:17:00,
2013-09-24 15:18:00,65.8,45.1,29.20,NNE,22,2.7,2.7,47,0.00,,---,0.00,VWS V13.01,2013-09-24 19:18:00,
2013-09-24 15:22:00,65.8,45.1,29.17,NE,45,2.2,2.2,47,0.00,,---,0.00,VWS V13.01,2013-09-24 19:22:00,
2013-09-24 15:24:00,65.8,45.1,29.17,NNE,22,1.3,2.5,47,0.00,,---,0.00,VWS V13.01,2013-09-24 19:24:00,
2013-09-24 15:26:00,65.8,45.1,29.17,SSW,202,0.0,0.0,47,0.00,,---,0.00,VWS V13.01,2013-09-24 19:26:00,
2013-09-24 15:28:00,65.8,45.1,29.17,SW,225,0.0,0.0,47,0.00,,---,0.00,VWS V13.01,2013-09-24 19:28:00,
2013-09-24 15:30:00,65.8,45.1,29.17,ENE,68,2.5,2.5,47,0.00,,---,0.00,VWS V13.01,2013-09-24 19:30:00,
2013-09-24 15:31:00,66.0,44.1,29.17,ENE,68,2.5,2.5,45,0.00,,---,0.00,VWS V13.01,2013-09-24 19:31:00,
2013-09-24 15:33:00,66.0,44.1,29.17,NNW,338,0.0,2.2,45,0.00,,---,0.00,VWS V13.01,2013-09-24 19:33:00,
2013-09-24 15:36:00,66.0,44.1,29.17,NE,45,2.5,2.5,45,0.00,,---,0.00,VWS V13.01,2013-09-24 19:36:00,
2013-09-24 15:37:00,66.0,44.1,29.17,NE,45,2.5,2.5,45,0.00,,---,0.00,VWS V13.01,2013-09-24 19:37:00,
2013-09-24 15:39:00,66.0,44.1,29.17,SW,225,0.0,0.0,45,0.00,,---,0.00,VWS V13.01,2013-09-24 19:39:00,
2013-09-24 15:41:00,66.0,44.1,29.17,SSE,158,0.0,2.5,45,0.00,,---,0.00,VWS V13.01,2013-09-24 19:41:00,
2013-09-24 15:42:00,66.0,44.1,29.17,NNE,22,2.5,2.5,45,0.00,,---,0.00,VWS V13.01,2013-09-24 19:42:00,
2013-09-24 15:44:00,66.0,44.1,29.17,NE,45,1.3,1.3,45,0.00,,---,0.00,VWS V13.01,2013-09-24 19:44:00,
2013-09-24 15:46:00,66.0,44.1,29.17,North,0,0.9,0.9,45,0.00,,---,0.00,VWS V13.01,2013-09-24 19:46:00,
2013-09-24 15:49:00,66.0,44.1,29.17,South,180,0.0,0.0,45,0.00,,---,0.00,VWS V13.01,2013-09-24 19:49:00,
2013-09-24 15:51:00,66.0,44.1,29.17,NNE,22,1.1,1.1,45,0.00,,---,0.00,VWS V13.01,2013-09-24 19:51:00,
2013-09-24 15:52:00,66.0,44.1,29.17,NNE,22,2.5,2.5,45,0.00,,---,0.00,VWS V13.01,2013-09-24 19:52:00,
2013-09-24 15:54:00,66.0,44.1,29.17,East,90,2.5,2.5,45,0.00,,---,0.00,VWS V13.01,2013-09-24 19:54:00,
2013-09-24 15:56:00,66.0,44.1,29.17,WSW,248,0.0,2.9,45,0.00,,---,0.00,VWS V13.01,2013-09-24 19:56:00,
2013-09-24 16:00:00,66.0,44.1,29.17,East,90,0.0,0.0,45,0.00,,---,0.00,VWS V13.01,2013-09-24 20:00:00,
2013-09-24 16:02:00,66.0,44.1,29.17,SE,135,0.0,0.0,45,0.00,,---,0.00,VWS V13.01,2013-09-24 20:02:00,
2013-09-24 16:03:00,65.8,43.9,29.17,WNW,292,1.6,1.6,45,0.00,,---,0.00,VWS V13.01,2013-09-24 20:03:00,
2013-09-24 16:04:00,65.8,43.9,29.17,SW,225,1.1,1.6,45,0.00,,---,0.00,VWS V13.01,2013-09-24 20:04:00,
2013-09-24 16:08:00,65.8,43.9,29.17,WSW,248,0.9,0.9,45,0.00,,---,0.00,VWS V13.01,2013-09-24 20:08:00,
2013-09-24 16:09:00,65.8,43.9,29.17,SW,225,0.0,0.9,45,0.00,,---,0.00,VWS V13.01,2013-09-24 20:09:00,
2013-09-24 16:10:00,65.8,43.9,29.17,West,270,0.0,0.0,45,0.00,,---,0.00,VWS V13.01,2013-09-24 20:10:00,
2013-09-24 16:11:00,65.8,43.9,29.17,SSW,202,2.0,2.0,45,0.00,,---,0.00,VWS V13.01,2013-09-24 20:11:00,
2013-09-24 16:15:00,65.8,43.9,29.17,SW,225,0.0,0.0,45,0.00,,---,0.00,VWS V13.01,2013-09-24 20:15:00,
2013-09-24 16:16:00,65.8,43.9,29.17,SW,225,0.9,0.9,45,0.00,,---,0.00,VWS V13.01,2013-09-24 20:16:00,
2013-09-24 16:18:00,65.8,43.9,29.17,WSW,248,1.1,1.1,45,0.00,,---,0.00,VWS V13.01,2013-09-24 20:18:00,
2013-09-24 16:20:00,65.7,44.3,29.17,WSW,248,0.0,0.0,46,0.00,,---,0.00,VWS V13.01,2013-09-24 20:20:00,
2013-09-24 16:21:00,65.7,44.3,29.17,ENE,68,0.0,0.0,46,0.00,,---,0.00,VWS V13.01,2013-09-24 20:21:00,
2013-09-24 16:24:00,65.7,44.3,29.17,SSW,202,0.0,0.0,46,0.00,,---,0.00,VWS V13.01,2013-09-24 20:24:00,
2013-09-24 16:26:00,65.7,44.3,29.17,SSW,202,0.0,0.0,46,0.00,,---,0.00,VWS V13.01,2013-09-24 20:26:00,
2013-09-24 16:30:00,65.7,44.3,29.17,WSW,248,0.0,0.0,46,0.00,,---,0.00,VWS V13.01,2013-09-24 20:30:00,
2013-09-24 16:31:00,65.7,44.3,29.17,WSW,248,0.0,0.0,46,0.00,,---,0.00,VWS V13.01,2013-09-24 20:31:00,
2013-09-24 16:33:00,65.7,44.3,29.17,SSE,158,0.0,0.0,46,0.00,,---,0.00,VWS V13.01,2013-09-24 20:33:00,
2013-09-24 16:36:00,65.7,44.3,29.17,East,90,0.0,0.0,46,0.00,,---,0.00,VWS V13.01,2013-09-24 20:36:00,
2013-09-24 16:38:00,65.7,44.3,29.17,ESE,112,1.6,1.6,46,0.00,,---,0.00,VWS V13.01,2013-09-24 20:38:00,
2013-09-24 16:42:00,65.7,44.3,29.17,SW,225,0.0,0.0,46,0.00,,---,0.00,VWS V13.01,2013-09-24 20:42:00,
2013-09-24 16:44:00,65.7,44.3,29.17,West,270,0.0,0.0,46,0.00,,---,0.00,VWS V13.01,2013-09-24 20:44:00,
2013-09-24 16:46:00,65.7,44.3,29.17,South,180,0.0,0.0,46,0.00,,---,0.00,VWS V13.01,2013-09-24 20:46:00,
2013-09-24 16:48:00,65.7,44.3,29.17,South,180,0.0,0.0,46,0.00,,---,0.00,VWS V13.01,2013-09-24 20:48:00,
2013-09-24 16:49:00,65.7,44.3,29.17,ESE,112,0.0,0.0,46,0.00,,---,0.00,VWS V13.01,2013-09-24 20:49:00,
2013-09-24 16:50:00,65.7,44.3,29.17,ESE,112,0.0,0.0,46,0.00,,---,0.00,VWS V13.01,2013-09-24 20:50:00,
2013-09-24 16:52:00,65.7,44.3,29.17,SW,225,0.0,0.0,46,0.00,,---,0.00,VWS V13.01,2013-09-24 20:52:00,
2013-09-24 16:54:00,65.7,44.3,29.17,WSW,248,0.0,0.0,46,0.00,,---,0.00,VWS V13.01,2013-09-24 20:54:00,
2013-09-24 16:55:00,65.7,44.3,29.17,WSW,248,0.0,0.0,46,0.00,,---,0.00,VWS V13.01,2013-09-24 20:55:00,
2013-09-24 16:59:00,64.9,44.8,29.17,North,0,0.0,0.0,48,0.00,,---,0.00,VWS V13.01,2013-09-24 20:59:00,
2013-09-24 17:00:00,64.9,44.8,29.17,West,270,1.1,1.1,48,0.00,,---,0.00,VWS V13.01,2013-09-24 21:00:00,
2013-09-24 17:02:00,64.9,44.8,29.17,East,90,0.0,0.9,48,0.00,,---,0.00,VWS V13.01,2013-09-24 21:02:00,
2013-09-24 17:06:00,64.9,44.8,29.17,SW,225,0.9,0.9,48,0.00,,---,0.00,VWS V13.01,2013-09-24 21:06:00,
2013-09-24 17:07:00,64.9,44.8,29.17,SE,135,0.0,0.9,48,0.00,,---,0.00,VWS V13.01,2013-09-24 21:07:00,
2013-09-24 17:09:00,64.9,44.8,29.17,South,180,0.0,0.0,48,0.00,,---,0.00,VWS V13.01,2013-09-24 21:09:00,
2013-09-24 17:12:00,65.3,43.4,29.17,SSW,202,0.0,0.0,45,0.00,,---,0.00,VWS V13.01,2013-09-24 21:12:00,
2013-09-24 17:13:00,65.3,43.4,29.17,South,180,0.0,0.0,45,0.00,,---,0.00,VWS V13.01,2013-09-24 21:13:00,
2013-09-24 17:16:00,65.3,43.4,29.17,SSW,202,0.0,0.0,45,0.00,,---,0.00,VWS V13.01,2013-09-24 21:16:00,
2013-09-24 17:18:00,65.3,43.4,29.17,SSE,158,0.0,0.0,45,0.00,,---,0.00,VWS V13.01,2013-09-24 21:18:00,
2013-09-24 17:21:00,65.3,43.4,29.17,SSW,202,0.0,0.0,45,0.00,,---,0.00,VWS V13.01,2013-09-24 21:21:00,
2013-09-24 17:22:00,65.3,43.4,29.17,SSW,202,0.0,0.0,45,0.00,,---,0.00,VWS V13.01,2013-09-24 21:22:00,
2013-09-24 17:23:00,65.3,43.4,29.17,SSW,202,0.0,0.0,45,0.00,,---,0.00,VWS V13.01,2013-09-24 21:23:00,
2013-09-24 17:24:00,65.3,43.4,29.17,SSW,202,0.0,0.0,45,0.00,,---,0.00,VWS V13.01,2013-09-24 21:24:00,
2013-09-24 17:27:00,64.0,44.5,29.17,SW,225,0.0,0.0,49,0.00,,---,0.00,VWS V13.01,2013-09-24 21:27:00,
2013-09-24 17:30:00,64.0,44.5,29.17,SSW,202,0.0,0.0,49,0.00,,---,0.00,VWS V13.01,2013-09-24 21:30:00,
2013-09-24 17:31:00,64.0,44.5,29.17,SSW,202,0.0,0.0,49,0.00,,---,0.00,VWS V13.01,2013-09-24 21:31:00,
2013-09-24 17:32:00,64.0,44.5,29.17,SW,225,0.0,0.0,49,0.00,,---,0.00,VWS V13.01,2013-09-24 21:32:00,
2013-09-24 17:33:00,64.0,44.5,29.17,SW,225,0.0,0.0,49,0.00,,---,0.00,VWS V13.01,2013-09-24 21:33:00,
2013-09-24 17:34:00,64.0,44.5,29.17,SSW,202,0.0,0.0,49,0.00,,---,0.00,VWS V13.01,2013-09-24 21:34:00,
2013-09-24 17:37:00,64.0,44.5,29.17,South,180,0.0,0.0,49,0.00,,---,0.00,VWS V13.01,2013-09-24 21:37:00,
2013-09-24 17:38:00,64.0,44.5,29.17,South,180,0.0,0.0,49,0.00,,---,0.00,VWS V13.01,2013-09-24 21:38:00,
2013-09-24 17:41:00,64.0,44.5,29.17,SSW,202,0.0,0.0,49,0.00,,---,0.00,VWS V13.01,2013-09-24 21:41:00,
2013-09-24 17:43:00,64.0,44.5,29.17,SSW,202,0.0,0.0,49,0.00,,---,0.00,VWS V13.01,2013-09-24 21:43:00,
2013-09-24 17:45:00,64.0,44.5,29.17,SSW,202,0.0,0.0,49,0.00,,---,0.00,VWS V13.01,2013-09-24 21:45:00,
2013-09-24 17:47:00,61.7,47.2,29.17,SSW,202,0.0,0.0,59,0.00,,---,0.00,VWS V13.01,2013-09-24 21:47:00,
2013-09-24 17:50:00,61.7,47.2,29.17,South,180,0.0,0.0,59,0.00,,---,0.00,VWS V13.01,2013-09-24 21:50:00,
2013-09-24 17:51:00,61.7,47.2,29.17,South,180,0.0,0.0,59,0.00,,---,0.00,VWS V13.01,2013-09-24 21:51:00,
2013-09-24 17:54:00,61.7,47.2,29.17,South,180,0.0,0.0,59,0.00,,---,0.00,VWS V13.01,2013-09-24 21:54:00,
2013-09-24 17:55:00,61.7,47.2,29.17,South,180,0.0,0.0,59,0.00,,---,0.00,VWS V13.01,2013-09-24 21:55:00,
2013-09-24 17:59:00,61.7,47.2,29.17,SW,225,0.0,0.0,59,0.00,,---,0.00,VWS V13.01,2013-09-24 21:59:00,
2013-09-24 18:00:00,61.0,48.3,29.17,SW,225,0.0,0.0,63,0.00,,---,0.00,VWS V13.01,2013-09-24 22:00:00,
2013-09-24 18:01:00,61.0,48.3,29.17,SW,225,0.0,0.0,63,0.00,,---,0.00,VWS V13.01,2013-09-24 22:01:00,
2013-09-24 18:05:00,61.0,48.3,29.17,SW,225,0.0,0.0,63,0.00,,---,0.00,VWS V13.01,2013-09-24 22:05:00,
2013-09-24 18:06:00,61.0,48.3,29.17,SW,225,0.0,0.0,63,0.00,,---,0.00,VWS V13.01,2013-09-24 22:06:00,
2013-09-24 18:07:00,61.0,48.3,29.17,SW,225,0.0,0.0,63,0.00,,---,0.00,VWS V13.01,2013-09-24 22:07:00,
2013-09-24 18:09:00,61.0,48.3,29.17,SW,225,0.0,0.0,63,0.00,,---,0.00,VWS V13.01,2013-09-24 22:09:00,
2013-09-24 18:11:00,61.0,48.3,29.17,SW,225,0.0,0.0,63,0.00,,---,0.00,VWS V13.01,2013-09-24 22:11:00,
2013-09-24 18:13:00,59.5,47.4,29.17,SW,225,0.0,0.0,64,0.00,,---,0.00,VWS V13.01,2013-09-24 22:13:00,
2013-09-24 18:15:00,59.5,47.4,29.17,SW,225,0.0,0.0,64,0.00,,---,0.00,VWS V13.01,2013-09-24 22:15:00,
2013-09-24 18:18:00,59.4,47.2,29.17,SW,225,0.0,0.0,64,0.00,,---,0.00,VWS V13.01,2013-09-24 22:18:00,
2013-09-24 18:19:00,59.4,47.2,29.17,SW,225,0.0,0.0,64,0.00,,---,0.00,VWS V13.01,2013-09-24 22:19:00,
2013-09-24 18:23:00,59.4,47.2,29.17,SW,225,0.0,0.0,64,0.00,,---,0.00,VWS V13.01,2013-09-24 22:23:00,
2013-09-24 18:24:00,59.4,47.2,29.17,SW,225,0.0,0.0,64,0.00,,---,0.00,VWS V13.01,2013-09-24 22:24:00,
2013-09-24 18:25:00,59.4,47.2,29.17,SW,225,0.0,0.0,64,0.00,,---,0.00,VWS V13.01,2013-09-24 22:25:00,
2013-09-24 18:27:00,59.4,47.2,29.17,SW,225,0.0,0.0,64,0.00,,---,0.00,VWS V13.01,2013-09-24 22:27:00,
2013-09-24 18:29:00,59.4,47.2,29.17,SW,225,0.0,0.0,64,0.00,,---,0.00,VWS V13.01,2013-09-24 22:29:00,
2013-09-24 18:34:00,59.4,47.2,29.17,SW,225,0.0,0.0,64,0.00,,---,0.00,VWS V13.01,2013-09-24 22:34:00,
2013-09-24 18:35:00,59.4,47.2,29.17,SW,225,0.0,0.0,64,0.00,,---,0.00,VWS V13.01,2013-09-24 22:35:00,
2013-09-24 18:37:00,59.4,47.2,29.17,SW,225,0.0,0.0,64,0.00,,---,0.00,VWS V13.01,2013-09-24 22:37:00,
2013-09-24 18:39:00,59.4,47.2,29.17,SW,225,0.0,0.0,64,0.00,,---,0.00,VWS V13.01,2013-09-24 22:39:00,
2013-09-24 18:42:00,59.4,47.2,29.17,SW,225,0.0,0.0,64,0.00,,---,0.00,VWS V13.01,2013-09-24 22:42:00,
2013-09-24 18:43:00,59.4,47.2,29.17,SW,225,0.0,0.0,64,0.00,,---,0.00,VWS V13.01,2013-09-24 22:43:00,
2013-09-24 18:44:00,59.4,47.2,29.17,SW,225,0.0,0.0,64,0.00,,---,0.00,VWS V13.01,2013-09-24 22:44:00,
2013-09-24 18:47:00,59.4,47.2,29.17,SW,225,0.0,0.0,64,0.00,,---,0.00,VWS V13.01,2013-09-24 22:47:00,
2013-09-24 18:49:00,59.4,47.2,29.17,SW,225,0.0,0.0,64,0.00,,---,0.00,VWS V13.01,2013-09-24 22:49:00,
2013-09-24 18:50:00,59.4,47.2,29.17,SW,225,0.0,0.0,64,0.00,,---,0.00,VWS V13.01,2013-09-24 22:50:00,
2013-09-24 18:51:00,59.4,47.2,29.17,SW,225,0.0,0.0,64,0.00,,---,0.00,VWS V13.01,2013-09-24 22:51:00,
2013-09-24 18:54:00,59.4,47.2,29.17,SW,225,0.0,0.0,64,0.00,,---,0.00,VWS V13.01,2013-09-24 22:54:00,
2013-09-24 18:56:00,56.3,47.0,29.17,SSE,158,0.0,0.0,71,0.00,,---,0.00,VWS V13.01,2013-09-24 22:56:00,
2013-09-24 18:57:00,56.3,47.0,29.17,West,270,0.0,0.0,71,0.00,,---,0.00,VWS V13.01,2013-09-24 22:57:00,
2013-09-24 18:58:00,56.3,47.0,29.17,SSW,202,0.0,0.0,71,0.00,,---,0.00,VWS V13.01,2013-09-24 22:58:00,
2013-09-24 18:59:00,56.3,47.0,29.17,SSW,202,0.0,0.0,71,0.00,,---,0.00,VWS V13.01,2013-09-24 22:59:00,
2013-09-24 19:01:00,56.3,47.0,29.17,South,180,0.0,0.0,71,0.00,,---,0.00,VWS V13.01,2013-09-24 23:01:00,
2013-09-24 19:03:00,56.3,47.0,29.17,SW,225,0.0,0.0,71,0.00,,---,0.00,VWS V13.01,2013-09-24 23:03:00,
2013-09-24 19:04:00,56.3,47.0,29.17,SW,225,0.0,0.0,71,0.00,,---,0.00,VWS V13.01,2013-09-24 23:04:00,
2013-09-24 19:05:00,55.8,46.9,29.17,SW,225,0.0,0.0,72,0.00,,---,0.00,VWS V13.01,2013-09-24 23:05:00,
2013-09-24 19:06:00,55.8,46.9,29.17,SW,225,0.0,0.0,72,0.00,,---,0.00,VWS V13.01,2013-09-24 23:06:00,
2013-09-24 19:09:00,55.6,46.7,29.17,SW,225,0.0,0.0,72,0.00,,---,0.00,VWS V13.01,2013-09-24 23:09:00,
2013-09-24 19:10:00,55.4,46.5,29.17,SW,225,0.0,0.0,72,0.00,,---,0.00,VWS V13.01,2013-09-24 23:10:00,
2013-09-24 19:11:00,55.4,46.5,29.17,SW,225,0.0,0.0,72,0.00,,---,0.00,VWS V13.01,2013-09-24 23:11:00,
2013-09-24 19:12:00,55.4,46.5,29.17,SW,225,0.0,0.0,72,0.00,,---,0.00,VWS V13.01,2013-09-24 23:12:00,
2013-09-24 19:13:00,55.4,46.5,29.17,SW,225,0.0,0.0,72,0.00,,---,0.00,VWS V13.01,2013-09-24 23:13:00,
2013-09-24 19:15:00,55.4,46.5,29.17,SW,225,0.0,0.0,72,0.00,,---,0.00,VWS V13.01,2013-09-24 23:15:00,
2013-09-24 19:19:00,54.9,46.4,29.17,SW,225,0.0,0.0,73,0.00,,---,0.00,VWS V13.01,2013-09-24 23:19:00,
2013-09-24 19:20:00,54.9,46.4,29.17,SW,225,0.0,0.0,73,0.00,,---,0.00,VWS V13.01,2013-09-24 23:20:00,
2013-09-24 19:21:00,54.9,46.4,29.17,SW,225,0.0,0.0,73,0.00,,---,0.00,VWS V13.01,2013-09-24 23:21:00,
2013-09-24 19:25:00,54.9,46.4,29.17,SW,225,0.0,0.0,73,0.00,,---,0.00,VWS V13.01,2013-09-24 23:25:00,
2013-09-24 19:26:00,54.9,46.4,29.17,SW,225,0.0,0.0,73,0.00,,---,0.00,VWS V13.01,2013-09-24 23:26:00,
2013-09-24 19:27:00,54.9,46.4,29.17,SW,225,0.0,0.0,73,0.00,,---,0.00,VWS V13.01,2013-09-24 23:27:00,
2013-09-24 19:29:00,54.9,46.4,29.17,SW,225,0.0,0.0,73,0.00,,---,0.00,VWS V13.01,2013-09-24 23:29:00,
2013-09-24 19:31:00,54.9,46.4,29.17,SW,225,0.0,0.0,73,0.00,,---,0.00,VWS V13.01,2013-09-24 23:31:00,
2013-09-24 19:33:00,54.9,46.4,29.17,SW,225,0.0,0.0,73,0.00,,---,0.00,VWS V13.01,2013-09-24 23:33:00,
2013-09-24 19:35:00,54.9,46.4,29.17,SW,225,0.0,0.0,73,0.00,,---,0.00,VWS V13.01,2013-09-24 23:35:00,
2013-09-24 19:39:00,53.8,45.7,29.17,SW,225,0.0,0.0,74,0.00,,---,0.00,VWS V13.01,2013-09-24 23:39:00,
2013-09-24 19:40:00,53.8,45.7,29.17,SW,225,0.0,0.0,74,0.00,,---,0.00,VWS V13.01,2013-09-24 23:40:00,
2013-09-24 19:43:00,53.8,45.7,29.17,SW,225,0.0,0.0,74,0.00,,---,0.00,VWS V13.01,2013-09-24 23:43:00,
2013-09-24 19:45:00,53.8,45.7,29.17,SW,225,0.0,0.0,74,0.00,,---,0.00,VWS V13.01,2013-09-24 23:45:00,
2013-09-24 19:47:00,53.8,45.7,29.17,SW,225,0.0,0.0,74,0.00,,---,0.00,VWS V13.01,2013-09-24 23:47:00,
2013-09-24 19:49:00,53.8,45.7,29.17,SW,225,0.0,0.0,74,0.00,,---,0.00,VWS V13.01,2013-09-24 23:49:00,
2013-09-24 19:50:00,53.8,45.7,29.17,SW,225,0.0,0.0,74,0.00,,---,0.00,VWS V13.01,2013-09-24 23:50:00,
2013-09-24 19:53:00,53.8,45.7,29.17,SW,225,0.0,0.0,74,0.00,,---,0.00,VWS V13.01,2013-09-24 23:53:00,
2013-09-24 19:54:00,53.1,45.4,29.17,SW,225,0.0,0.0,75,0.00,,---,0.00,VWS V13.01,2013-09-24 23:54:00,
2013-09-24 19:56:00,53.1,45.4,29.17,SW,225,0.0,0.0,75,0.00,,---,0.00,VWS V13.01,2013-09-24 23:56:00,
2013-09-24 19:57:00,53.1,45.4,29.17,SW,225,0.0,0.0,75,0.00,,---,0.00,VWS V13.01,2013-09-24 23:57:00,
2013-09-24 19:59:00,52.9,45.2,29.17,SW,225,0.0,0.0,75,0.00,,---,0.00,VWS V13.01,2013-09-24 23:59:00,
2013-09-24 20:02:00,52.9,45.2,29.20,SW,225,0.0,0.0,75,0.00,,---,0.00,VWS V13.01,2013-09-25 00:02:00,
2013-09-24 20:03:00,52.9,45.2,29.20,SW,225,0.0,0.0,75,0.00,,---,0.00,VWS V13.01,2013-09-25 00:03:00,
2013-09-24 20:04:00,52.9,45.2,29.20,SW,225,0.0,0.0,75,0.00,,---,0.00,VWS V13.01,2013-09-25 00:04:00,
2013-09-24 20:05:00,52.9,45.2,29.20,WSW,248,1.1,1.1,75,0.00,,---,0.00,VWS V13.01,2013-09-25 00:05:00,
2013-09-24 20:09:00,52.9,45.2,29.20,WSW,248,0.0,0.0,75,0.00,,---,0.00,VWS V13.01,2013-09-25 00:09:00,
2013-09-24 20:10:00,52.9,45.2,29.20,WSW,248,0.0,0.0,75,0.00,,---,0.00,VWS V13.01,2013-09-25 00:10:00,
2013-09-24 20:11:00,52.9,45.2,29.20,WSW,248,0.0,0.0,75,0.00,,---,0.00,VWS V13.01,2013-09-25 00:11:00,
2013-09-24 20:12:00,52.9,45.2,29.20,WSW,248,0.0,0.0,75,0.00,,---,0.00,VWS V13.01,2013-09-25 00:12:00,
2013-09-24 20:16:00,52.9,45.2,29.20,SSE,158,0.0,0.0,75,0.00,,---,0.00,VWS V13.01,2013-09-25 00:16:00,
2013-09-24 20:18:00,52.9,45.2,29.20,SSE,158,0.0,0.0,75,0.00,,---,0.00,VWS V13.01,2013-09-25 00:18:00,
2013-09-24 20:19:00,52.9,45.2,29.20,SSE,158,0.0,0.0,75,0.00,,---,0.00,VWS V13.01,2013-09-25 00:19:00,
2013-09-24 20:21:00,52.9,45.2,29.20,SSE,158,0.0,0.0,75,0.00,,---,0.00,VWS V13.01,2013-09-25 00:21:00,
2013-09-24 20:24:00,52.0,45.0,29.20,SSE,158,0.0,0.0,77,0.00,,---,0.00,VWS V13.01,2013-09-25 00:24:00,
2013-09-24 20:25:00,52.0,45.0,29.20,South,180,0.0,0.0,77,0.00,,---,0.00,VWS V13.01,2013-09-25 00:25:00,
2013-09-24 20:26:00,52.0,45.0,29.20,SSW,202,0.0,0.0,77,0.00,,---,0.00,VWS V13.01,2013-09-25 00:26:00,
2013-09-24 20:30:00,52.0,45.0,29.20,SW,225,0.0,0.0,77,0.00,,---,0.00,VWS V13.01,2013-09-25 00:30:00,
2013-09-24 20:31:00,52.0,45.0,29.20,SW,225,0.0,0.0,77,0.00,,---,0.00,VWS V13.01,2013-09-25 00:31:00,
2013-09-24 20:33:00,52.0,45.0,29.20,SSW,202,0.0,0.0,77,0.00,,---,0.00,VWS V13.01,2013-09-25 00:33:00,
2013-09-24 20:34:00,52.0,45.0,29.20,SSW,202,0.0,0.0,77,0.00,,---,0.00,VWS V13.01,2013-09-25 00:34:00,
2013-09-24 20:35:00,52.0,45.0,29.20,SSW,202,0.0,0.0,77,0.00,,---,0.00,VWS V13.01,2013-09-25 00:35:00,
2013-09-24 20:36:00,52.0,45.0,29.20,SSW,202,0.0,0.0,77,0.00,,---,0.00,VWS V13.01,2013-09-25 00:36:00,
2013-09-24 20:38:00,52.0,45.0,29.20,SSW,202,0.0,0.0,77,0.00,,---,0.00,VWS V13.01,2013-09-25 00:38:00,
2013-09-24 20:41:00,52.0,45.0,29.20,SSW,202,0.0,0.0,77,0.00,,---,0.00,VWS V13.01,2013-09-25 00:41:00,
2013-09-24 20:43:00,52.0,45.0,29.20,SSW,202,0.0,0.0,77,0.00,,---,0.00,VWS V13.01,2013-09-25 00:43:00,
2013-09-24 20:46:00,51.3,44.6,29.20,SSW,202,0.0,0.0,78,0.00,,---,0.00,VWS V13.01,2013-09-25 00:46:00,
2013-09-24 20:48:00,51.3,44.6,29.20,SSW,202,0.0,0.0,78,0.00,,---,0.00,VWS V13.01,2013-09-25 00:48:00,
2013-09-24 20:49:00,51.3,44.6,29.20,SSW,202,0.0,0.0,78,0.00,,---,0.00,VWS V13.01,2013-09-25 00:49:00,
2013-09-24 20:51:00,51.1,44.5,29.20,SSW,202,0.0,0.0,78,0.00,,---,0.00,VWS V13.01,2013-09-25 00:51:00,
2013-09-24 20:52:00,50.9,44.3,29.20,SSW,202,0.0,0.0,78,0.00,,---,0.00,VWS V13.01,2013-09-25 00:52:00,
2013-09-24 20:53:00,50.9,44.3,29.20,SSW,202,0.0,0.0,78,0.00,,---,0.00,VWS V13.01,2013-09-25 00:53:00,
2013-09-24 20:57:00,50.9,44.3,29.20,SSW,202,0.0,0.0,78,0.00,,---,0.00,VWS V13.01,2013-09-25 00:57:00,
2013-09-24 20:58:00,50.9,44.3,29.20,SSW,202,0.0,0.0,78,0.00,,---,0.00,VWS V13.01,2013-09-25 00:58:00,
2013-09-24 20:59:00,50.9,44.3,29.20,SSW,202,0.0,0.0,78,0.00,,---,0.00,VWS V13.01,2013-09-25 00:59:00,
2013-09-24 21:00:00,50.9,44.3,29.20,SSW,202,0.0,0.0,78,0.00,,---,0.00,VWS V13.01,2013-09-25 01:00:00,
2013-09-24 21:02:00,50.9,44.3,29.20,SSW,202,0.0,0.0,78,0.00,,---,0.00,VWS V13.01,2013-09-25 01:02:00,
2013-09-24 21:06:00,50.9,44.3,29.20,SSW,202,0.0,0.0,78,0.00,,---,0.00,VWS V13.01,2013-09-25 01:06:00,
2013-09-24 21:08:00,50.9,44.3,29.20,SSW,202,0.0,0.0,78,0.00,,---,0.00,VWS V13.01,2013-09-25 01:08:00,
2013-09-24 21:10:00,50.9,44.3,29.20,SSW,202,0.0,0.0,78,0.00,,---,0.00,VWS V13.01,2013-09-25 01:10:00,
2013-09-24 21:12:00,50.9,44.3,29.20,SSW,202,0.0,0.0,78,0.00,,---,0.00,VWS V13.01,2013-09-25 01:12:00,
2013-09-24 21:13:00,50.9,44.3,29.20,SSW,202,0.0,0.0,78,0.00,,---,0.00,VWS V13.01,2013-09-25 01:13:00,
2013-09-24 21:16:00,50.4,44.1,29.20,SSW,202,0.0,0.0,79,0.00,,---,0.00,VWS V13.01,2013-09-25 01:16:00,
2013-09-24 21:18:00,50.4,44.1,29.20,SSW,202,0.0,0.0,79,0.00,,---,0.00,VWS V13.01,2013-09-25 01:18:00,
2013-09-24 21:20:00,50.4,44.1,29.20,SSW,202,0.0,0.0,79,0.00,,---,0.00,VWS V13.01,2013-09-25 01:20:00,
2013-09-24 21:21:00,50.2,43.9,29.20,SSW,202,0.0,0.0,79,0.00,,---,0.00,VWS V13.01,2013-09-25 01:21:00,
2013-09-24 21:24:00,50.2,43.9,29.20,SSW,202,0.0,0.0,79,0.00,,---,0.00,VWS V13.01,2013-09-25 01:24:00,
2013-09-24 21:25:00,50.2,43.9,29.20,SSW,202,0.0,0.0,79,0.00,,---,0.00,VWS V13.01,2013-09-25 01:25:00,
2013-09-24 21:26:00,50.2,43.9,29.20,SSW,202,0.0,0.0,79,0.00,,---,0.00,VWS V13.01,2013-09-25 01:26:00,
2013-09-24 21:27:00,50.2,43.9,29.20,SSW,202,0.0,0.0,79,0.00,,---,0.00,VWS V13.01,2013-09-25 01:27:00,
2013-09-24 21:28:00,50.2,43.9,29.20,SSW,202,0.0,0.0,79,0.00,,---,0.00,VWS V13.01,2013-09-25 01:28:00,
2013-09-24 21:30:00,50.2,43.9,29.20,SSW,202,0.0,0.0,79,0.00,,---,0.00,VWS V13.01,2013-09-25 01:30:00,
2013-09-24 21:32:00,50.2,43.9,29.20,SSW,202,0.0,0.0,79,0.00,,---,0.00,VWS V13.01,2013-09-25 01:32:00,
2013-09-24 21:33:00,50.2,43.9,29.20,SSW,202,0.0,0.0,79,0.00,,---,0.00,VWS V13.01,2013-09-25 01:33:00,
2013-09-24 21:36:00,50.2,43.9,29.20,SSW,202,0.0,0.0,79,0.00,,---,0.00,VWS V13.01,2013-09-25 01:36:00,
2013-09-24 21:38:00,50.2,43.9,29.20,SSW,202,0.0,0.0,79,0.00,,---,0.00,VWS V13.01,2013-09-25 01:38:00,
2013-09-24 21:41:00,50.2,43.9,29.20,SSW,202,0.0,0.0,79,0.00,,---,0.00,VWS V13.01,2013-09-25 01:41:00,
2013-09-24 21:42:00,50.2,43.9,29.20,SSW,202,0.0,0.0,79,0.00,,---,0.00,VWS V13.01,2013-09-25 01:42:00,
2013-09-24 21:43:00,50.2,43.9,29.20,SSW,202,0.0,0.0,79,0.00,,---,0.00,VWS V13.01,2013-09-25 01:43:00,
2013-09-24 21:46:00,50.2,43.9,29.20,SSW,202,0.0,0.0,79,0.00,,---,0.00,VWS V13.01,2013-09-25 01:46:00,
2013-09-24 21:48:00,50.2,43.9,29.20,SSW,202,0.0,0.0,79,0.00,,---,0.00,VWS V13.01,2013-09-25 01:48:00,
2013-09-24 21:49:00,50.2,43.9,29.20,SSW,202,0.0,0.0,79,0.00,,---,0.00,VWS V13.01,2013-09-25 01:49:00,
2013-09-24 21:50:00,50.2,43.9,29.20,SSW,202,0.0,0.0,79,0.00,,---,0.00,VWS V13.01,2013-09-25 01:50:00,
2013-09-24 21:54:00,50.2,43.9,29.20,SSW,202,0.0,0.0,79,0.00,,---,0.00,VWS V13.01,2013-09-25 01:54:00,
2013-09-24 21:55:00,50.2,43.9,29.20,SSW,202,0.0,0.0,79,0.00,,---,0.00,VWS V13.01,2013-09-25 01:55:00,
2013-09-24 21:56:00,50.2,43.9,29.20,SSW,202,0.0,0.0,79,0.00,,---,0.00,VWS V13.01,2013-09-25 01:56:00,
2013-09-24 21:58:00,50.2,43.9,29.20,SSW,202,0.0,0.0,79,0.00,,---,0.00,VWS V13.01,2013-09-25 01:58:00,
2013-09-24 22:00:00,50.2,43.9,29.20,SW,225,0.0,0.0,79,0.00,,---,0.00,VWS V13.01,2013-09-25 02:00:00,
2013-09-24 22:01:00,50.2,43.9,29.20,SW,225,0.0,0.0,79,0.00,,---,0.00,VWS V13.01,2013-09-25 02:01:00,
2013-09-24 22:02:00,50.2,43.9,29.20,SW,225,0.0,0.0,79,0.00,,---,0.00,VWS V13.01,2013-09-25 02:02:00,
2013-09-24 22:04:00,50.2,43.9,29.20,SW,225,0.0,0.0,79,0.00,,---,0.00,VWS V13.01,2013-09-25 02:04:00,
2013-09-24 22:06:00,50.2,43.9,29.20,SW,225,0.0,0.0,79,0.00,,---,0.00,VWS V13.01,2013-09-25 02:06:00,
2013-09-24 22:07:00,50.2,43.9,29.20,SW,225,0.0,0.0,79,0.00,,---,0.00,VWS V13.01,2013-09-25 02:07:00,
2013-09-24 22:10:00,48.9,43.0,29.20,SW,225,0.0,0.0,80,0.00,,---,0.00,VWS V13.01,2013-09-25 02:10:00,
2013-09-24 22:12:00,48.9,43.0,29.20,SW,225,0.0,0.0,80,0.00,,---,0.00,VWS V13.01,2013-09-25 02:12:00,
2013-09-24 22:13:00,48.9,43.0,29.20,SW,225,0.0,0.0,80,0.00,,---,0.00,VWS V13.01,2013-09-25 02:13:00,
2013-09-24 22:14:00,48.9,43.3,29.20,SW,225,0.9,0.9,81,0.00,,---,0.00,VWS V13.01,2013-09-25 02:14:00,
2013-09-24 22:15:00,48.9,43.3,29.20,SW,225,0.9,0.9,81,0.00,,---,0.00,VWS V13.01,2013-09-25 02:15:00,
2013-09-24 22:18:00,48.9,43.3,29.20,SW,225,0.0,0.0,81,0.00,,---,0.00,VWS V13.01,2013-09-25 02:18:00,
2013-09-24 22:19:00,48.9,43.3,29.20,SW,225,0.0,0.0,81,0.00,,---,0.00,VWS V13.01,2013-09-25 02:19:00,
2013-09-24 22:22:00,48.9,43.3,29.20,SW,225,0.0,0.0,81,0.00,,---,0.00,VWS V13.01,2013-09-25 02:22:00,
2013-09-24 22:24:00,48.6,43.0,29.20,SW,225,0.0,0.0,81,0.00,,---,0.00,VWS V13.01,2013-09-25 02:24:00,
2013-09-24 22:25:00,48.6,43.0,29.20,SW,225,0.0,0.0,81,0.00,,---,0.00,VWS V13.01,2013-09-25 02:25:00,
2013-09-24 22:27:00,48.6,43.0,29.20,SW,225,0.0,0.0,81,0.00,,---,0.00,VWS V13.01,2013-09-25 02:27:00,
2013-09-24 22:29:00,48.6,43.0,29.20,SW,225,0.0,0.0,81,0.00,,---,0.00,VWS V13.01,2013-09-25 02:29:00,
2013-09-24 22:30:00,48.6,43.0,29.20,SW,225,0.0,0.0,81,0.00,,---,0.00,VWS V13.01,2013-09-25 02:30:00,
2013-09-24 22:32:00,48.6,43.0,29.20,SW,225,0.0,0.0,81,0.00,,---,0.00,VWS V13.01,2013-09-25 02:32:00,
2013-09-24 22:35:00,48.6,43.0,29.20,SW,225,0.0,0.0,81,0.00,,---,0.00,VWS V13.01,2013-09-25 02:35:00,
2013-09-24 22:37:00,48.2,42.7,29.20,SW,225,0.0,0.0,81,0.00,,---,0.00,VWS V13.01,2013-09-25 02:37:00,
2013-09-24 22:39:00,48.2,42.7,29.20,SW,225,0.0,0.0,81,0.00,,---,0.00,VWS V13.01,2013-09-25 02:39:00,
2013-09-24 22:41:00,48.2,42.7,29.20,SW,225,0.0,0.0,81,0.00,,---,0.00,VWS V13.01,2013-09-25 02:41:00,
2013-09-24 22:42:00,48.2,42.7,29.20,SW,225,0.0,0.0,81,0.00,,---,0.00,VWS V13.01,2013-09-25 02:42:00,
2013-09-24 22:43:00,48.2,42.7,29.20,SW,225,0.0,0.0,81,0.00,,---,0.00,VWS V13.01,2013-09-25 02:43:00,
2013-09-24 22:44:00,48.2,42.7,29.20,SW,225,0.0,0.0,81,0.00,,---,0.00,VWS V13.01,2013-09-25 02:44:00,
2013-09-24 22:46:00,48.2,42.7,29.20,SW,225,0.0,0.0,81,0.00,,---,0.00,VWS V13.01,2013-09-25 02:46:00,
2013-09-24 22:47:00,48.2,42.7,29.20,SW,225,0.0,0.0,81,0.00,,---,0.00,VWS V13.01,2013-09-25 02:47:00,
2013-09-24 22:49:00,48.2,42.7,29.20,SW,225,0.0,0.0,81,0.00,,---,0.00,VWS V13.01,2013-09-25 02:49:00,
2013-09-24 22:51:00,48.2,42.7,29.20,East,90,0.0,0.0,81,0.00,,---,0.00,VWS V13.01,2013-09-25 02:51:00,
2013-09-24 22:52:00,48.2,42.7,29.20,ESE,112,0.0,0.0,81,0.00,,---,0.00,VWS V13.01,2013-09-25 02:52:00,
2013-09-24 22:53:00,48.2,42.7,29.20,ESE,112,0.0,0.0,81,0.00,,---,0.00,VWS V13.01,2013-09-25 02:53:00,
2013-09-24 22:56:00,48.2,42.7,29.20,SE,135,0.0,0.0,81,0.00,,---,0.00,VWS V13.01,2013-09-25 02:56:00,
2013-09-24 22:57:00,48.2,42.7,29.20,SE,135,0.0,0.0,81,0.00,,---,0.00,VWS V13.01,2013-09-25 02:57:00,
2013-09-24 22:58:00,48.2,42.7,29.20,SE,135,0.0,0.0,81,0.00,,---,0.00,VWS V13.01,2013-09-25 02:58:00,
2013-09-24 22:59:00,48.2,42.7,29.20,SE,135,0.0,0.0,81,0.00,,---,0.00,VWS V13.01,2013-09-25 02:59:00,
2013-09-24 23:03:00,47.8,42.6,29.20,SE,135,0.0,0.0,82,0.00,,---,0.00,VWS V13.01,2013-09-25 03:03:00,
2013-09-24 23:04:00,47.8,42.6,29.20,SE,135,0.0,0.0,82,0.00,,---,0.00,VWS V13.01,2013-09-25 03:04:00,
2013-09-24 23:05:00,47.8,42.6,29.20,South,180,0.0,0.0,82,0.00,,---,0.00,VWS V13.01,2013-09-25 03:05:00,
2013-09-24 23:07:00,47.8,42.6,29.20,WSW,248,0.0,1.1,82,0.00,,---,0.00,VWS V13.01,2013-09-25 03:07:00,
2013-09-24 23:12:00,47.8,42.6,29.23,WSW,248,0.0,0.0,82,0.00,,---,0.00,VWS V13.01,2013-09-25 03:12:00,
2013-09-24 23:13:00,47.8,42.6,29.23,WSW,248,0.0,0.0,82,0.00,,---,0.00,VWS V13.01,2013-09-25 03:13:00,
2013-09-24 23:14:00,47.8,42.6,29.23,WSW,248,0.0,0.0,82,0.00,,---,0.00,VWS V13.01,2013-09-25 03:14:00,
2013-09-24 23:16:00,47.8,42.6,29.23,WSW,248,0.0,0.0,82,0.00,,---,0.00,VWS V13.01,2013-09-25 03:16:00,
2013-09-24 23:18:00,47.8,42.6,29.23,ESE,112,0.0,0.0,82,0.00,,---,0.00,VWS V13.01,2013-09-25 03:18:00,
2013-09-24 23:19:00,47.3,42.1,29.23,ESE,112,0.0,0.0,82,0.00,,---,0.00,VWS V13.01,2013-09-25 03:19:00,
2013-09-24 23:21:00,47.3,42.1,29.23,ESE,112,0.0,0.0,82,0.00,,---,0.00,VWS V13.01,2013-09-25 03:21:00,
2013-09-24 23:23:00,47.3,42.1,29.23,ESE,112,0.0,0.0,82,0.00,,---,0.00,VWS V13.01,2013-09-25 03:23:00,
2013-09-24 23:24:00,47.3,42.1,29.23,ESE,112,0.0,0.0,82,0.00,,---,0.00,VWS V13.01,2013-09-25 03:24:00,
2013-09-24 23:26:00,47.3,42.1,29.23,ESE,112,0.0,0.0,82,0.00,,---,0.00,VWS V13.01,2013-09-25 03:26:00,
2013-09-24 23:27:00,47.3,42.1,29.23,ESE,112,0.0,0.0,82,0.00,,---,0.00,VWS V13.01,2013-09-25 03:27:00,
2013-09-24 23:30:00,47.3,42.1,29.23,ESE,112,0.0,0.0,82,0.00,,---,0.00,VWS V13.01,2013-09-25 03:30:00,
2013-09-24 23:31:00,47.7,42.4,29.23,ESE,112,0.0,0.0,82,0.00,,---,0.00,VWS V13.01,2013-09-25 03:31:00,
2013-09-24 23:32:00,47.7,42.4,29.23,ESE,112,0.0,0.0,82,0.00,,---,0.00,VWS V13.01,2013-09-25 03:32:00,
2013-09-24 23:37:00,47.7,42.4,29.23,ESE,112,0.0,0.0,82,0.00,,---,0.00,VWS V13.01,2013-09-25 03:37:00,
2013-09-24 23:38:00,47.7,42.4,29.23,South,180,0.0,0.0,82,0.00,,---,0.00,VWS V13.01,2013-09-25 03:38:00,
2013-09-24 23:39:00,47.7,42.4,29.23,South,180,0.0,0.0,82,0.00,,---,0.00,VWS V13.01,2013-09-25 03:39:00,
2013-09-24 23:40:00,47.7,42.4,29.23,South,180,0.0,0.0,82,0.00,,---,0.00,VWS V13.01,2013-09-25 03:40:00,
2013-09-24 23:43:00,47.7,42.4,29.23,SSW,202,0.0,0.0,82,0.00,,---,0.00,VWS V13.01,2013-09-25 03:43:00,
2013-09-24 23:44:00,47.7,42.4,29.23,SSW,202,0.0,0.0,82,0.00,,---,0.00,VWS V13.01,2013-09-25 03:44:00,
2013-09-24 23:45:00,47.7,42.4,29.23,SSW,202,0.0,0.0,82,0.00,,---,0.00,VWS V13.01,2013-09-25 03:45:00,
2013-09-24 23:46:00,47.7,42.4,29.23,SSW,202,0.0,0.0,82,0.00,,---,0.00,VWS V13.01,2013-09-25 03:46:00,
2013-09-24 23:51:00,47.7,42.4,29.23,SW,225,0.0,0.0,82,0.00,,---,0.00,VWS V13.01,2013-09-25 03:51:00,
2013-09-24 23:52:00,47.7,42.4,29.23,SW,225,0.0,0.0,82,0.00,,---,0.00,VWS V13.01,2013-09-25 03:52:00,
2013-09-24 23:54:00,47.7,42.4,29.26,SW,225,0.0,0.0,82,0.00,,---,0.00,VWS V13.01,2013-09-25 03:54:00,
2013-09-24 23:55:00,47.7,42.8,29.26,SW,225,0.0,0.0,83,0.00,,---,0.00,VWS V13.01,2013-09-25 03:55:00,
2013-09-24 23:57:00,47.7,42.8,29.26,SW,225,0.0,0.0,83,0.00,,---,0.00,VWS V13.01,2013-09-25 03:57:00,
2013-09-24 23:58:00,47.7,42.8,29.26,SW,225,0.0,0.0,83,0.00,,---,0.00,VWS V13.01,2013-09-25 03:58:00,
2013-09-24 23:59:00,47.7,42.8,29.26,SW,225,0.0,0.0,83,0.00,,---,0.00,VWS V13.01,2013-09-25 03:59:00,